<?xml version="1.0" encoding="UTF-8" standalone="no" ?>
<gpx xmlns="http://www.topografix.com/GPX/1/1" xmlns:xsi="http://www.w3.org/2001/XMLSchema-instance" xsi:schemaLocation="http://www.topografix.com/GPX/1/1 http://www.topografix.com/GPX/1/1/gpx.xsd" version="1.1" creator="VisuGPX - https://www.visugpx.com">
  <metadata>
    <name>83 - V - Villecroze</name>
    <desc><![CDATA[grp_trc:]]></desc>
  </metadata>
  <trk>
    <name><![CDATA[23 févr. 2024]]></name>
    <cmt><![CDATA[13:48:35]]></cmt>
    <desc><![CDATA[comment ...]]></desc>
    <trkseg>
      <trkpt lat="43.56553" lon="6.29359">
        <ele>323</ele>
        <time>2024-02-23T12:48:33Z</time>
      </trkpt>
      <trkpt lat="43.56553" lon="6.29359">
        <ele>323</ele>
        <time>2024-02-23T12:48:34Z</time>
      </trkpt>
      <trkpt lat="43.56555" lon="6.29353">
        <ele>316</ele>
        <time>2024-02-23T12:49:58Z</time>
      </trkpt>
      <trkpt lat="43.56556" lon="6.29359">
        <ele>316</ele>
        <time>2024-02-23T12:50:08Z</time>
      </trkpt>
      <trkpt lat="43.56559" lon="6.29365">
        <ele>316</ele>
        <time>2024-02-23T12:50:14Z</time>
      </trkpt>
      <trkpt lat="43.56561" lon="6.29377">
        <ele>313</ele>
        <time>2024-02-23T12:50:28Z</time>
      </trkpt>
      <trkpt lat="43.5656" lon="6.29382">
        <ele>312</ele>
        <time>2024-02-23T12:50:33Z</time>
      </trkpt>
      <trkpt lat="43.5656" lon="6.29389">
        <ele>313</ele>
        <time>2024-02-23T12:50:40Z</time>
      </trkpt>
      <trkpt lat="43.56559" lon="6.29395">
        <ele>314</ele>
        <time>2024-02-23T12:50:45Z</time>
      </trkpt>
      <trkpt lat="43.56558" lon="6.29402">
        <ele>314</ele>
        <time>2024-02-23T12:50:51Z</time>
      </trkpt>
      <trkpt lat="43.5656" lon="6.29426">
        <ele>313</ele>
        <time>2024-02-23T12:51:06Z</time>
      </trkpt>
      <trkpt lat="43.56562" lon="6.29431">
        <ele>313</ele>
        <time>2024-02-23T12:51:10Z</time>
      </trkpt>
      <trkpt lat="43.56563" lon="6.29437">
        <ele>313</ele>
        <time>2024-02-23T12:51:15Z</time>
      </trkpt>
      <trkpt lat="43.56557" lon="6.2946">
        <ele>315</ele>
        <time>2024-02-23T12:51:33Z</time>
      </trkpt>
      <trkpt lat="43.56543" lon="6.29486">
        <ele>319</ele>
        <time>2024-02-23T12:51:59Z</time>
      </trkpt>
      <trkpt lat="43.56537" lon="6.29497">
        <ele>320</ele>
        <time>2024-02-23T12:52:08Z</time>
      </trkpt>
      <trkpt lat="43.56529" lon="6.29507">
        <ele>321</ele>
        <time>2024-02-23T12:52:18Z</time>
      </trkpt>
      <trkpt lat="43.56522" lon="6.29515">
        <ele>321</ele>
        <time>2024-02-23T12:52:28Z</time>
      </trkpt>
      <trkpt lat="43.56519" lon="6.29521">
        <ele>322</ele>
        <time>2024-02-23T12:52:35Z</time>
      </trkpt>
      <trkpt lat="43.56511" lon="6.29529">
        <ele>322</ele>
        <time>2024-02-23T12:52:45Z</time>
      </trkpt>
      <trkpt lat="43.56509" lon="6.29534">
        <ele>323</ele>
        <time>2024-02-23T12:52:51Z</time>
      </trkpt>
      <trkpt lat="43.56504" lon="6.29545">
        <ele>322</ele>
        <time>2024-02-23T12:53:01Z</time>
      </trkpt>
      <trkpt lat="43.565" lon="6.29557">
        <ele>323</ele>
        <time>2024-02-23T12:53:10Z</time>
      </trkpt>
      <trkpt lat="43.56497" lon="6.29563">
        <ele>322</ele>
        <time>2024-02-23T12:53:15Z</time>
      </trkpt>
      <trkpt lat="43.56494" lon="6.29568">
        <ele>322</ele>
        <time>2024-02-23T12:53:20Z</time>
      </trkpt>
      <trkpt lat="43.5649" lon="6.29579">
        <ele>321</ele>
        <time>2024-02-23T12:53:30Z</time>
      </trkpt>
      <trkpt lat="43.56483" lon="6.29598">
        <ele>320</ele>
        <time>2024-02-23T12:53:46Z</time>
      </trkpt>
      <trkpt lat="43.56482" lon="6.29604">
        <ele>320</ele>
        <time>2024-02-23T12:53:52Z</time>
      </trkpt>
      <trkpt lat="43.56475" lon="6.29624">
        <ele>321</ele>
        <time>2024-02-23T12:54:06Z</time>
      </trkpt>
      <trkpt lat="43.56473" lon="6.29631">
        <ele>322</ele>
        <time>2024-02-23T12:54:12Z</time>
      </trkpt>
      <trkpt lat="43.56473" lon="6.29637">
        <ele>322</ele>
        <time>2024-02-23T12:54:17Z</time>
      </trkpt>
      <trkpt lat="43.56469" lon="6.29651">
        <ele>326</ele>
        <time>2024-02-23T12:54:32Z</time>
      </trkpt>
      <trkpt lat="43.56464" lon="6.29674">
        <ele>330</ele>
        <time>2024-02-23T12:54:50Z</time>
      </trkpt>
      <trkpt lat="43.56463" lon="6.2968">
        <ele>330</ele>
        <time>2024-02-23T12:54:54Z</time>
      </trkpt>
      <trkpt lat="43.56461" lon="6.29685">
        <ele>331</ele>
        <time>2024-02-23T12:54:58Z</time>
      </trkpt>
      <trkpt lat="43.56459" lon="6.29691">
        <ele>331</ele>
        <time>2024-02-23T12:55:03Z</time>
      </trkpt>
      <trkpt lat="43.56457" lon="6.29697">
        <ele>333</ele>
        <time>2024-02-23T12:55:08Z</time>
      </trkpt>
      <trkpt lat="43.56456" lon="6.29703">
        <ele>333</ele>
        <time>2024-02-23T12:55:12Z</time>
      </trkpt>
      <trkpt lat="43.56455" lon="6.29717">
        <ele>332</ele>
        <time>2024-02-23T12:55:24Z</time>
      </trkpt>
      <trkpt lat="43.56454" lon="6.29724">
        <ele>331</ele>
        <time>2024-02-23T12:55:31Z</time>
      </trkpt>
      <trkpt lat="43.56445" lon="6.29742">
        <ele>331</ele>
        <time>2024-02-23T12:55:46Z</time>
      </trkpt>
      <trkpt lat="43.56443" lon="6.29749">
        <ele>332</ele>
        <time>2024-02-23T12:55:52Z</time>
      </trkpt>
      <trkpt lat="43.56446" lon="6.29762">
        <ele>332</ele>
        <time>2024-02-23T12:56:02Z</time>
      </trkpt>
      <trkpt lat="43.56447" lon="6.29769">
        <ele>332</ele>
        <time>2024-02-23T12:56:08Z</time>
      </trkpt>
      <trkpt lat="43.56447" lon="6.29776">
        <ele>331</ele>
        <time>2024-02-23T12:56:12Z</time>
      </trkpt>
      <trkpt lat="43.56446" lon="6.29782">
        <ele>331</ele>
        <time>2024-02-23T12:56:16Z</time>
      </trkpt>
      <trkpt lat="43.56429" lon="6.29825">
        <ele>334</ele>
        <time>2024-02-23T12:56:47Z</time>
      </trkpt>
      <trkpt lat="43.56413" lon="6.29864">
        <ele>338</ele>
        <time>2024-02-23T12:57:19Z</time>
      </trkpt>
      <trkpt lat="43.56409" lon="6.29867">
        <ele>339</ele>
        <time>2024-02-23T12:57:23Z</time>
      </trkpt>
      <trkpt lat="43.56407" lon="6.29872">
        <ele>340</ele>
        <time>2024-02-23T12:57:27Z</time>
      </trkpt>
      <trkpt lat="43.56403" lon="6.29874">
        <ele>341</ele>
        <time>2024-02-23T12:57:31Z</time>
      </trkpt>
      <trkpt lat="43.564" lon="6.29879">
        <ele>342</ele>
        <time>2024-02-23T12:57:35Z</time>
      </trkpt>
      <trkpt lat="43.56399" lon="6.29884">
        <ele>343</ele>
        <time>2024-02-23T12:57:40Z</time>
      </trkpt>
      <trkpt lat="43.56396" lon="6.29891">
        <ele>343</ele>
        <time>2024-02-23T12:57:45Z</time>
      </trkpt>
      <trkpt lat="43.56393" lon="6.29895">
        <ele>343</ele>
        <time>2024-02-23T12:57:49Z</time>
      </trkpt>
      <trkpt lat="43.5639" lon="6.29901">
        <ele>343</ele>
        <time>2024-02-23T12:57:54Z</time>
      </trkpt>
      <trkpt lat="43.56381" lon="6.29922">
        <ele>344</ele>
        <time>2024-02-23T12:58:11Z</time>
      </trkpt>
      <trkpt lat="43.56379" lon="6.29927">
        <ele>344</ele>
        <time>2024-02-23T12:58:15Z</time>
      </trkpt>
      <trkpt lat="43.56377" lon="6.29933">
        <ele>344</ele>
        <time>2024-02-23T12:58:20Z</time>
      </trkpt>
      <trkpt lat="43.56371" lon="6.29939">
        <ele>345</ele>
        <time>2024-02-23T12:58:26Z</time>
      </trkpt>
      <trkpt lat="43.56362" lon="6.2996">
        <ele>344</ele>
        <time>2024-02-23T12:58:43Z</time>
      </trkpt>
      <trkpt lat="43.56352" lon="6.29997">
        <ele>345</ele>
        <time>2024-02-23T12:59:14Z</time>
      </trkpt>
      <trkpt lat="43.56349" lon="6.30004">
        <ele>345</ele>
        <time>2024-02-23T12:59:20Z</time>
      </trkpt>
      <trkpt lat="43.56347" lon="6.30011">
        <ele>346</ele>
        <time>2024-02-23T12:59:25Z</time>
      </trkpt>
      <trkpt lat="43.56344" lon="6.30019">
        <ele>346</ele>
        <time>2024-02-23T12:59:34Z</time>
      </trkpt>
      <trkpt lat="43.56342" lon="6.30026">
        <ele>345</ele>
        <time>2024-02-23T12:59:43Z</time>
      </trkpt>
      <trkpt lat="43.56333" lon="6.30036">
        <ele>343</ele>
        <time>2024-02-23T12:59:58Z</time>
      </trkpt>
      <trkpt lat="43.56331" lon="6.30042">
        <ele>341</ele>
        <time>2024-02-23T13:00:27Z</time>
      </trkpt>
      <trkpt lat="43.56331" lon="6.30048">
        <ele>341</ele>
        <time>2024-02-23T13:00:36Z</time>
      </trkpt>
      <trkpt lat="43.56331" lon="6.30055">
        <ele>342</ele>
        <time>2024-02-23T13:00:46Z</time>
      </trkpt>
      <trkpt lat="43.56334" lon="6.30064">
        <ele>342</ele>
        <time>2024-02-23T13:01:03Z</time>
      </trkpt>
      <trkpt lat="43.56337" lon="6.3007">
        <ele>342</ele>
        <time>2024-02-23T13:01:11Z</time>
      </trkpt>
      <trkpt lat="43.56342" lon="6.30085">
        <ele>341</ele>
        <time>2024-02-23T13:01:26Z</time>
      </trkpt>
      <trkpt lat="43.56349" lon="6.30097">
        <ele>342</ele>
        <time>2024-02-23T13:01:37Z</time>
      </trkpt>
      <trkpt lat="43.56352" lon="6.30102">
        <ele>342</ele>
        <time>2024-02-23T13:01:45Z</time>
      </trkpt>
      <trkpt lat="43.56358" lon="6.30115">
        <ele>343</ele>
        <time>2024-02-23T13:01:56Z</time>
      </trkpt>
      <trkpt lat="43.56359" lon="6.30122">
        <ele>344</ele>
        <time>2024-02-23T13:02:02Z</time>
      </trkpt>
      <trkpt lat="43.56364" lon="6.30134">
        <ele>347</ele>
        <time>2024-02-23T13:02:14Z</time>
      </trkpt>
      <trkpt lat="43.56366" lon="6.30139">
        <ele>347</ele>
        <time>2024-02-23T13:02:19Z</time>
      </trkpt>
      <trkpt lat="43.56364" lon="6.30146">
        <ele>348</ele>
        <time>2024-02-23T13:02:27Z</time>
      </trkpt>
      <trkpt lat="43.56358" lon="6.30157">
        <ele>354</ele>
        <time>2024-02-23T13:02:39Z</time>
      </trkpt>
      <trkpt lat="43.5635" lon="6.30173">
        <ele>357</ele>
        <time>2024-02-23T13:02:52Z</time>
      </trkpt>
      <trkpt lat="43.56344" lon="6.30189">
        <ele>360</ele>
        <time>2024-02-23T13:03:05Z</time>
      </trkpt>
      <trkpt lat="43.5634" lon="6.302">
        <ele>363</ele>
        <time>2024-02-23T13:03:15Z</time>
      </trkpt>
      <trkpt lat="43.56337" lon="6.30205">
        <ele>363</ele>
        <time>2024-02-23T13:03:19Z</time>
      </trkpt>
      <trkpt lat="43.56333" lon="6.30209">
        <ele>363</ele>
        <time>2024-02-23T13:03:25Z</time>
      </trkpt>
      <trkpt lat="43.56324" lon="6.30213">
        <ele>363</ele>
        <time>2024-02-23T13:03:37Z</time>
      </trkpt>
      <trkpt lat="43.56314" lon="6.30215">
        <ele>363</ele>
        <time>2024-02-23T13:03:47Z</time>
      </trkpt>
      <trkpt lat="43.56309" lon="6.30214">
        <ele>362</ele>
        <time>2024-02-23T13:03:53Z</time>
      </trkpt>
      <trkpt lat="43.56304" lon="6.30215">
        <ele>362</ele>
        <time>2024-02-23T13:03:58Z</time>
      </trkpt>
      <trkpt lat="43.5629" lon="6.30217">
        <ele>362</ele>
        <time>2024-02-23T13:04:11Z</time>
      </trkpt>
      <trkpt lat="43.56284" lon="6.30218">
        <ele>362</ele>
        <time>2024-02-23T13:04:16Z</time>
      </trkpt>
      <trkpt lat="43.56275" lon="6.30225">
        <ele>362</ele>
        <time>2024-02-23T13:04:27Z</time>
      </trkpt>
      <trkpt lat="43.56271" lon="6.30226">
        <ele>362</ele>
        <time>2024-02-23T13:04:32Z</time>
      </trkpt>
      <trkpt lat="43.56268" lon="6.3023">
        <ele>361</ele>
        <time>2024-02-23T13:05:02Z</time>
      </trkpt>
      <trkpt lat="43.56266" lon="6.30231">
        <ele>362</ele>
        <time>2024-02-23T13:05:13Z</time>
      </trkpt>
      <trkpt lat="43.56264" lon="6.30229">
        <ele>363</ele>
        <time>2024-02-23T13:05:14Z</time>
      </trkpt>
      <trkpt lat="43.56261" lon="6.30229">
        <ele>364</ele>
        <time>2024-02-23T13:05:28Z</time>
      </trkpt>
      <trkpt lat="43.5626" lon="6.30232">
        <ele>365</ele>
        <time>2024-02-23T13:05:30Z</time>
      </trkpt>
      <trkpt lat="43.56257" lon="6.30233">
        <ele>365</ele>
        <time>2024-02-23T13:05:32Z</time>
      </trkpt>
      <trkpt lat="43.56252" lon="6.30233">
        <ele>364</ele>
        <time>2024-02-23T13:05:38Z</time>
      </trkpt>
      <trkpt lat="43.5625" lon="6.30231">
        <ele>364</ele>
        <time>2024-02-23T13:06:09Z</time>
      </trkpt>
      <trkpt lat="43.56247" lon="6.3023">
        <ele>365</ele>
        <time>2024-02-23T13:06:12Z</time>
      </trkpt>
      <trkpt lat="43.56246" lon="6.30229">
        <ele>364</ele>
        <time>2024-02-23T13:06:27Z</time>
      </trkpt>
      <trkpt lat="43.56244" lon="6.30229">
        <ele>364</ele>
        <time>2024-02-23T13:06:29Z</time>
      </trkpt>
      <trkpt lat="43.56243" lon="6.30232">
        <ele>365</ele>
        <time>2024-02-23T13:06:31Z</time>
      </trkpt>
      <trkpt lat="43.5624" lon="6.30234">
        <ele>365</ele>
        <time>2024-02-23T13:06:34Z</time>
      </trkpt>
      <trkpt lat="43.56233" lon="6.30234">
        <ele>365</ele>
        <time>2024-02-23T13:06:43Z</time>
      </trkpt>
      <trkpt lat="43.56229" lon="6.30236">
        <ele>365</ele>
        <time>2024-02-23T13:06:47Z</time>
      </trkpt>
      <trkpt lat="43.56223" lon="6.30237">
        <ele>364</ele>
        <time>2024-02-23T13:06:55Z</time>
      </trkpt>
      <trkpt lat="43.56219" lon="6.30238">
        <ele>364</ele>
        <time>2024-02-23T13:06:59Z</time>
      </trkpt>
      <trkpt lat="43.56202" lon="6.30238">
        <ele>363</ele>
        <time>2024-02-23T13:07:14Z</time>
      </trkpt>
      <trkpt lat="43.56199" lon="6.30238">
        <ele>364</ele>
        <time>2024-02-23T13:07:18Z</time>
      </trkpt>
      <trkpt lat="43.56192" lon="6.30232">
        <ele>364</ele>
        <time>2024-02-23T13:07:26Z</time>
      </trkpt>
      <trkpt lat="43.56188" lon="6.30231">
        <ele>364</ele>
        <time>2024-02-23T13:07:30Z</time>
      </trkpt>
      <trkpt lat="43.5618" lon="6.30235">
        <ele>364</ele>
        <time>2024-02-23T13:07:39Z</time>
      </trkpt>
      <trkpt lat="43.56177" lon="6.30239">
        <ele>363</ele>
        <time>2024-02-23T13:07:43Z</time>
      </trkpt>
      <trkpt lat="43.56164" lon="6.30246">
        <ele>363</ele>
        <time>2024-02-23T13:07:56Z</time>
      </trkpt>
      <trkpt lat="43.5616" lon="6.30249">
        <ele>362</ele>
        <time>2024-02-23T13:08:00Z</time>
      </trkpt>
      <trkpt lat="43.56153" lon="6.30257">
        <ele>362</ele>
        <time>2024-02-23T13:08:10Z</time>
      </trkpt>
      <trkpt lat="43.56151" lon="6.30262">
        <ele>362</ele>
        <time>2024-02-23T13:08:15Z</time>
      </trkpt>
      <trkpt lat="43.56146" lon="6.30272">
        <ele>363</ele>
        <time>2024-02-23T13:08:24Z</time>
      </trkpt>
      <trkpt lat="43.56133" lon="6.30309">
        <ele>362</ele>
        <time>2024-02-23T13:08:52Z</time>
      </trkpt>
      <trkpt lat="43.5613" lon="6.30314">
        <ele>363</ele>
        <time>2024-02-23T13:08:56Z</time>
      </trkpt>
      <trkpt lat="43.56128" lon="6.30327">
        <ele>363</ele>
        <time>2024-02-23T13:09:05Z</time>
      </trkpt>
      <trkpt lat="43.56129" lon="6.30333">
        <ele>364</ele>
        <time>2024-02-23T13:09:10Z</time>
      </trkpt>
      <trkpt lat="43.56129" lon="6.3034">
        <ele>364</ele>
        <time>2024-02-23T13:09:16Z</time>
      </trkpt>
      <trkpt lat="43.56131" lon="6.30355">
        <ele>361</ele>
        <time>2024-02-23T13:09:27Z</time>
      </trkpt>
      <trkpt lat="43.56131" lon="6.30364">
        <ele>361</ele>
        <time>2024-02-23T13:09:32Z</time>
      </trkpt>
      <trkpt lat="43.5613" lon="6.30378">
        <ele>360</ele>
        <time>2024-02-23T13:09:41Z</time>
      </trkpt>
      <trkpt lat="43.56128" lon="6.30387">
        <ele>359</ele>
        <time>2024-02-23T13:09:47Z</time>
      </trkpt>
      <trkpt lat="43.56127" lon="6.30394">
        <ele>359</ele>
        <time>2024-02-23T13:09:52Z</time>
      </trkpt>
      <trkpt lat="43.56123" lon="6.30406">
        <ele>358</ele>
        <time>2024-02-23T13:10:01Z</time>
      </trkpt>
      <trkpt lat="43.56122" lon="6.30413">
        <ele>358</ele>
        <time>2024-02-23T13:10:05Z</time>
      </trkpt>
      <trkpt lat="43.56119" lon="6.30419">
        <ele>357</ele>
        <time>2024-02-23T13:10:11Z</time>
      </trkpt>
      <trkpt lat="43.56118" lon="6.30426">
        <ele>357</ele>
        <time>2024-02-23T13:10:16Z</time>
      </trkpt>
      <trkpt lat="43.56118" lon="6.30434">
        <ele>357</ele>
        <time>2024-02-23T13:10:21Z</time>
      </trkpt>
      <trkpt lat="43.56114" lon="6.30456">
        <ele>356</ele>
        <time>2024-02-23T13:10:37Z</time>
      </trkpt>
      <trkpt lat="43.56111" lon="6.30468">
        <ele>357</ele>
        <time>2024-02-23T13:10:46Z</time>
      </trkpt>
      <trkpt lat="43.5611" lon="6.30475">
        <ele>357</ele>
        <time>2024-02-23T13:10:51Z</time>
      </trkpt>
      <trkpt lat="43.56107" lon="6.30494">
        <ele>361</ele>
        <time>2024-02-23T13:11:04Z</time>
      </trkpt>
      <trkpt lat="43.56104" lon="6.305">
        <ele>361</ele>
        <time>2024-02-23T13:11:09Z</time>
      </trkpt>
      <trkpt lat="43.56099" lon="6.30512">
        <ele>361</ele>
        <time>2024-02-23T13:11:20Z</time>
      </trkpt>
      <trkpt lat="43.56099" lon="6.30518">
        <ele>361</ele>
        <time>2024-02-23T13:11:24Z</time>
      </trkpt>
      <trkpt lat="43.561" lon="6.30525">
        <ele>362</ele>
        <time>2024-02-23T13:11:31Z</time>
      </trkpt>
      <trkpt lat="43.56097" lon="6.30537">
        <ele>361</ele>
        <time>2024-02-23T13:11:41Z</time>
      </trkpt>
      <trkpt lat="43.56094" lon="6.30548">
        <ele>362</ele>
        <time>2024-02-23T13:11:50Z</time>
      </trkpt>
      <trkpt lat="43.56091" lon="6.30554">
        <ele>362</ele>
        <time>2024-02-23T13:11:55Z</time>
      </trkpt>
      <trkpt lat="43.5609" lon="6.30559">
        <ele>361</ele>
        <time>2024-02-23T13:12:00Z</time>
      </trkpt>
      <trkpt lat="43.56089" lon="6.30564">
        <ele>361</ele>
        <time>2024-02-23T13:12:05Z</time>
      </trkpt>
      <trkpt lat="43.56088" lon="6.30568">
        <ele>362</ele>
        <time>2024-02-23T13:12:10Z</time>
      </trkpt>
      <trkpt lat="43.56087" lon="6.30574">
        <ele>363</ele>
        <time>2024-02-23T13:12:15Z</time>
      </trkpt>
      <trkpt lat="43.56087" lon="6.30581">
        <ele>364</ele>
        <time>2024-02-23T13:12:22Z</time>
      </trkpt>
      <trkpt lat="43.56085" lon="6.30588">
        <ele>363</ele>
        <time>2024-02-23T13:12:29Z</time>
      </trkpt>
      <trkpt lat="43.56078" lon="6.30599">
        <ele>363</ele>
        <time>2024-02-23T13:12:40Z</time>
      </trkpt>
      <trkpt lat="43.56076" lon="6.30613">
        <ele>366</ele>
        <time>2024-02-23T13:12:50Z</time>
      </trkpt>
      <trkpt lat="43.56074" lon="6.30619">
        <ele>366</ele>
        <time>2024-02-23T13:12:55Z</time>
      </trkpt>
      <trkpt lat="43.56073" lon="6.30624">
        <ele>367</ele>
        <time>2024-02-23T13:13:00Z</time>
      </trkpt>
      <trkpt lat="43.5607" lon="6.30638">
        <ele>368</ele>
        <time>2024-02-23T13:13:12Z</time>
      </trkpt>
      <trkpt lat="43.56069" lon="6.30645">
        <ele>369</ele>
        <time>2024-02-23T13:13:17Z</time>
      </trkpt>
      <trkpt lat="43.56067" lon="6.30658">
        <ele>370</ele>
        <time>2024-02-23T13:13:28Z</time>
      </trkpt>
      <trkpt lat="43.56064" lon="6.30677">
        <ele>372</ele>
        <time>2024-02-23T13:13:43Z</time>
      </trkpt>
      <trkpt lat="43.56062" lon="6.30682">
        <ele>372</ele>
        <time>2024-02-23T13:13:47Z</time>
      </trkpt>
      <trkpt lat="43.56061" lon="6.30688">
        <ele>373</ele>
        <time>2024-02-23T13:13:51Z</time>
      </trkpt>
      <trkpt lat="43.56058" lon="6.30692">
        <ele>374</ele>
        <time>2024-02-23T13:13:55Z</time>
      </trkpt>
      <trkpt lat="43.56055" lon="6.30704">
        <ele>374</ele>
        <time>2024-02-23T13:14:04Z</time>
      </trkpt>
      <trkpt lat="43.56054" lon="6.30709">
        <ele>374</ele>
        <time>2024-02-23T13:14:09Z</time>
      </trkpt>
      <trkpt lat="43.56052" lon="6.30713">
        <ele>373</ele>
        <time>2024-02-23T13:14:13Z</time>
      </trkpt>
      <trkpt lat="43.56051" lon="6.30718">
        <ele>372</ele>
        <time>2024-02-23T13:14:17Z</time>
      </trkpt>
      <trkpt lat="43.56042" lon="6.30737">
        <ele>374</ele>
        <time>2024-02-23T13:14:32Z</time>
      </trkpt>
      <trkpt lat="43.56041" lon="6.30742">
        <ele>375</ele>
        <time>2024-02-23T13:14:36Z</time>
      </trkpt>
      <trkpt lat="43.56039" lon="6.30748">
        <ele>375</ele>
        <time>2024-02-23T13:14:41Z</time>
      </trkpt>
      <trkpt lat="43.56037" lon="6.30753">
        <ele>377</ele>
        <time>2024-02-23T13:14:56Z</time>
      </trkpt>
      <trkpt lat="43.56034" lon="6.30764">
        <ele>376</ele>
        <time>2024-02-23T13:15:05Z</time>
      </trkpt>
      <trkpt lat="43.56034" lon="6.3077">
        <ele>376</ele>
        <time>2024-02-23T13:15:10Z</time>
      </trkpt>
      <trkpt lat="43.56031" lon="6.30776">
        <ele>376</ele>
        <time>2024-02-23T13:15:15Z</time>
      </trkpt>
      <trkpt lat="43.56029" lon="6.30782">
        <ele>377</ele>
        <time>2024-02-23T13:15:19Z</time>
      </trkpt>
      <trkpt lat="43.56024" lon="6.30799">
        <ele>377</ele>
        <time>2024-02-23T13:15:32Z</time>
      </trkpt>
      <trkpt lat="43.56023" lon="6.30812">
        <ele>375</ele>
        <time>2024-02-23T13:15:40Z</time>
      </trkpt>
      <trkpt lat="43.56022" lon="6.30818">
        <ele>376</ele>
        <time>2024-02-23T13:15:45Z</time>
      </trkpt>
      <trkpt lat="43.56023" lon="6.30847">
        <ele>375</ele>
        <time>2024-02-23T13:16:04Z</time>
      </trkpt>
      <trkpt lat="43.56026" lon="6.30866">
        <ele>374</ele>
        <time>2024-02-23T13:16:19Z</time>
      </trkpt>
      <trkpt lat="43.56031" lon="6.30878">
        <ele>373</ele>
        <time>2024-02-23T13:16:28Z</time>
      </trkpt>
      <trkpt lat="43.56032" lon="6.30883">
        <ele>373</ele>
        <time>2024-02-23T13:16:33Z</time>
      </trkpt>
      <trkpt lat="43.56035" lon="6.30889">
        <ele>372</ele>
        <time>2024-02-23T13:16:39Z</time>
      </trkpt>
      <trkpt lat="43.56039" lon="6.30901">
        <ele>371</ele>
        <time>2024-02-23T13:16:49Z</time>
      </trkpt>
      <trkpt lat="43.56045" lon="6.30913">
        <ele>372</ele>
        <time>2024-02-23T13:17:00Z</time>
      </trkpt>
      <trkpt lat="43.56049" lon="6.30926">
        <ele>372</ele>
        <time>2024-02-23T13:17:14Z</time>
      </trkpt>
      <trkpt lat="43.56052" lon="6.30934">
        <ele>372</ele>
        <time>2024-02-23T13:17:18Z</time>
      </trkpt>
      <trkpt lat="43.56053" lon="6.30941">
        <ele>371</ele>
        <time>2024-02-23T13:17:22Z</time>
      </trkpt>
      <trkpt lat="43.56056" lon="6.30947">
        <ele>371</ele>
        <time>2024-02-23T13:17:27Z</time>
      </trkpt>
      <trkpt lat="43.56063" lon="6.30974">
        <ele>371</ele>
        <time>2024-02-23T13:17:47Z</time>
      </trkpt>
      <trkpt lat="43.56066" lon="6.3098">
        <ele>371</ele>
        <time>2024-02-23T13:17:53Z</time>
      </trkpt>
      <trkpt lat="43.56075" lon="6.31014">
        <ele>370</ele>
        <time>2024-02-23T13:18:19Z</time>
      </trkpt>
      <trkpt lat="43.56076" lon="6.31021">
        <ele>371</ele>
        <time>2024-02-23T13:18:25Z</time>
      </trkpt>
      <trkpt lat="43.56077" lon="6.31028">
        <ele>373</ele>
        <time>2024-02-23T13:18:30Z</time>
      </trkpt>
      <trkpt lat="43.5608" lon="6.31033">
        <ele>373</ele>
        <time>2024-02-23T13:18:35Z</time>
      </trkpt>
      <trkpt lat="43.56081" lon="6.31039">
        <ele>374</ele>
        <time>2024-02-23T13:18:39Z</time>
      </trkpt>
      <trkpt lat="43.5609" lon="6.31062">
        <ele>377</ele>
        <time>2024-02-23T13:19:01Z</time>
      </trkpt>
      <trkpt lat="43.56091" lon="6.31069">
        <ele>376</ele>
        <time>2024-02-23T13:19:07Z</time>
      </trkpt>
      <trkpt lat="43.56091" lon="6.31092">
        <ele>377</ele>
        <time>2024-02-23T13:19:24Z</time>
      </trkpt>
      <trkpt lat="43.56092" lon="6.31098">
        <ele>378</ele>
        <time>2024-02-23T13:19:28Z</time>
      </trkpt>
      <trkpt lat="43.56094" lon="6.31118">
        <ele>376</ele>
        <time>2024-02-23T13:19:41Z</time>
      </trkpt>
      <trkpt lat="43.56095" lon="6.31124">
        <ele>377</ele>
        <time>2024-02-23T13:19:46Z</time>
      </trkpt>
      <trkpt lat="43.56104" lon="6.3114">
        <ele>377</ele>
        <time>2024-02-23T13:20:02Z</time>
      </trkpt>
      <trkpt lat="43.56105" lon="6.31145">
        <ele>378</ele>
        <time>2024-02-23T13:20:14Z</time>
      </trkpt>
      <trkpt lat="43.56104" lon="6.31151">
        <ele>378</ele>
        <time>2024-02-23T13:20:43Z</time>
      </trkpt>
      <trkpt lat="43.56106" lon="6.31156">
        <ele>383</ele>
        <time>2024-02-23T13:21:46Z</time>
      </trkpt>
      <trkpt lat="43.5611" lon="6.3116">
        <ele>382</ele>
        <time>2024-02-23T13:21:52Z</time>
      </trkpt>
      <trkpt lat="43.56112" lon="6.3116">
        <ele>382</ele>
        <time>2024-02-23T13:22:12Z</time>
      </trkpt>
      <trkpt lat="43.56114" lon="6.31163">
        <ele>382</ele>
        <time>2024-02-23T13:22:22Z</time>
      </trkpt>
      <trkpt lat="43.56117" lon="6.31166">
        <ele>383</ele>
        <time>2024-02-23T13:22:52Z</time>
      </trkpt>
      <trkpt lat="43.56121" lon="6.31169">
        <ele>383</ele>
        <time>2024-02-23T13:23:04Z</time>
      </trkpt>
      <trkpt lat="43.56129" lon="6.31168">
        <ele>381</ele>
        <time>2024-02-23T13:23:37Z</time>
      </trkpt>
      <trkpt lat="43.56135" lon="6.31192">
        <ele>383</ele>
        <time>2024-02-23T13:23:59Z</time>
      </trkpt>
      <trkpt lat="43.56135" lon="6.31197">
        <ele>384</ele>
        <time>2024-02-23T13:24:04Z</time>
      </trkpt>
      <trkpt lat="43.56134" lon="6.31203">
        <ele>384</ele>
        <time>2024-02-23T13:24:08Z</time>
      </trkpt>
      <trkpt lat="43.56134" lon="6.31209">
        <ele>385</ele>
        <time>2024-02-23T13:24:13Z</time>
      </trkpt>
      <trkpt lat="43.56133" lon="6.31216">
        <ele>385</ele>
        <time>2024-02-23T13:24:18Z</time>
      </trkpt>
      <trkpt lat="43.56133" lon="6.31222">
        <ele>386</ele>
        <time>2024-02-23T13:24:23Z</time>
      </trkpt>
      <trkpt lat="43.56132" lon="6.31228">
        <ele>386</ele>
        <time>2024-02-23T13:24:29Z</time>
      </trkpt>
      <trkpt lat="43.56133" lon="6.31233">
        <ele>386</ele>
        <time>2024-02-23T13:24:41Z</time>
      </trkpt>
      <trkpt lat="43.56137" lon="6.31236">
        <ele>386</ele>
        <time>2024-02-23T13:24:46Z</time>
      </trkpt>
      <trkpt lat="43.56141" lon="6.31239">
        <ele>387</ele>
        <time>2024-02-23T13:24:52Z</time>
      </trkpt>
      <trkpt lat="43.56146" lon="6.3124">
        <ele>388</ele>
        <time>2024-02-23T13:24:58Z</time>
      </trkpt>
      <trkpt lat="43.56149" lon="6.31243">
        <ele>388</ele>
        <time>2024-02-23T13:25:04Z</time>
      </trkpt>
      <trkpt lat="43.56154" lon="6.31247">
        <ele>387</ele>
        <time>2024-02-23T13:25:10Z</time>
      </trkpt>
      <trkpt lat="43.56158" lon="6.31258">
        <ele>387</ele>
        <time>2024-02-23T13:25:22Z</time>
      </trkpt>
      <trkpt lat="43.56157" lon="6.31262">
        <ele>387</ele>
        <time>2024-02-23T13:25:27Z</time>
      </trkpt>
      <trkpt lat="43.56156" lon="6.31265">
        <ele>387</ele>
        <time>2024-02-23T13:25:37Z</time>
      </trkpt>
      <trkpt lat="43.56152" lon="6.31276">
        <ele>388</ele>
        <time>2024-02-23T13:25:46Z</time>
      </trkpt>
      <trkpt lat="43.56152" lon="6.31279">
        <ele>390</ele>
        <time>2024-02-23T13:25:53Z</time>
      </trkpt>
      <trkpt lat="43.5615" lon="6.31287">
        <ele>391</ele>
        <time>2024-02-23T13:25:57Z</time>
      </trkpt>
      <trkpt lat="43.56151" lon="6.31296">
        <ele>392</ele>
        <time>2024-02-23T13:26:03Z</time>
      </trkpt>
      <trkpt lat="43.56154" lon="6.31311">
        <ele>392</ele>
        <time>2024-02-23T13:26:14Z</time>
      </trkpt>
      <trkpt lat="43.56157" lon="6.31316">
        <ele>392</ele>
        <time>2024-02-23T13:26:18Z</time>
      </trkpt>
      <trkpt lat="43.56161" lon="6.31325">
        <ele>390</ele>
        <time>2024-02-23T13:26:25Z</time>
      </trkpt>
      <trkpt lat="43.56175" lon="6.31354">
        <ele>389</ele>
        <time>2024-02-23T13:26:48Z</time>
      </trkpt>
      <trkpt lat="43.56177" lon="6.31358">
        <ele>388</ele>
        <time>2024-02-23T13:26:53Z</time>
      </trkpt>
      <trkpt lat="43.56181" lon="6.31367">
        <ele>390</ele>
        <time>2024-02-23T13:27:02Z</time>
      </trkpt>
      <trkpt lat="43.56185" lon="6.31369">
        <ele>390</ele>
        <time>2024-02-23T13:27:06Z</time>
      </trkpt>
      <trkpt lat="43.56194" lon="6.3138">
        <ele>390</ele>
        <time>2024-02-23T13:27:18Z</time>
      </trkpt>
      <trkpt lat="43.56195" lon="6.31384">
        <ele>392</ele>
        <time>2024-02-23T13:27:21Z</time>
      </trkpt>
      <trkpt lat="43.56196" lon="6.31391">
        <ele>394</ele>
        <time>2024-02-23T13:27:27Z</time>
      </trkpt>
      <trkpt lat="43.56196" lon="6.31394">
        <ele>394</ele>
        <time>2024-02-23T13:27:30Z</time>
      </trkpt>
      <trkpt lat="43.56197" lon="6.31398">
        <ele>394</ele>
        <time>2024-02-23T13:27:34Z</time>
      </trkpt>
      <trkpt lat="43.56199" lon="6.31401">
        <ele>395</ele>
        <time>2024-02-23T13:27:38Z</time>
      </trkpt>
      <trkpt lat="43.56202" lon="6.31408">
        <ele>396</ele>
        <time>2024-02-23T13:27:45Z</time>
      </trkpt>
      <trkpt lat="43.56208" lon="6.31413">
        <ele>395</ele>
        <time>2024-02-23T13:27:53Z</time>
      </trkpt>
      <trkpt lat="43.56208" lon="6.31416">
        <ele>394</ele>
        <time>2024-02-23T13:28:08Z</time>
      </trkpt>
      <trkpt lat="43.56209" lon="6.3142">
        <ele>393</ele>
        <time>2024-02-23T13:28:12Z</time>
      </trkpt>
      <trkpt lat="43.56211" lon="6.31422">
        <ele>393</ele>
        <time>2024-02-23T13:28:24Z</time>
      </trkpt>
      <trkpt lat="43.56213" lon="6.31426">
        <ele>393</ele>
        <time>2024-02-23T13:29:08Z</time>
      </trkpt>
      <trkpt lat="43.56215" lon="6.3143">
        <ele>394</ele>
        <time>2024-02-23T13:30:14Z</time>
      </trkpt>
      <trkpt lat="43.56218" lon="6.31439">
        <ele>393</ele>
        <time>2024-02-23T13:30:36Z</time>
      </trkpt>
      <trkpt lat="43.56222" lon="6.31446">
        <ele>393</ele>
        <time>2024-02-23T13:30:47Z</time>
      </trkpt>
      <trkpt lat="43.56224" lon="6.31449">
        <ele>392</ele>
        <time>2024-02-23T13:30:52Z</time>
      </trkpt>
      <trkpt lat="43.56233" lon="6.31476">
        <ele>389</ele>
        <time>2024-02-23T13:31:22Z</time>
      </trkpt>
      <trkpt lat="43.56232" lon="6.31481">
        <ele>389</ele>
        <time>2024-02-23T13:31:29Z</time>
      </trkpt>
      <trkpt lat="43.56233" lon="6.31486">
        <ele>389</ele>
        <time>2024-02-23T13:31:33Z</time>
      </trkpt>
      <trkpt lat="43.56237" lon="6.31489">
        <ele>389</ele>
        <time>2024-02-23T13:31:40Z</time>
      </trkpt>
      <trkpt lat="43.56241" lon="6.31499">
        <ele>388</ele>
        <time>2024-02-23T13:31:48Z</time>
      </trkpt>
      <trkpt lat="43.56241" lon="6.3151">
        <ele>387</ele>
        <time>2024-02-23T13:31:56Z</time>
      </trkpt>
      <trkpt lat="43.56242" lon="6.31515">
        <ele>388</ele>
        <time>2024-02-23T13:32:00Z</time>
      </trkpt>
      <trkpt lat="43.56243" lon="6.31519">
        <ele>388</ele>
        <time>2024-02-23T13:32:04Z</time>
      </trkpt>
      <trkpt lat="43.56244" lon="6.31532">
        <ele>389</ele>
        <time>2024-02-23T13:33:00Z</time>
      </trkpt>
      <trkpt lat="43.56252" lon="6.31554">
        <ele>389</ele>
        <time>2024-02-23T13:33:23Z</time>
      </trkpt>
      <trkpt lat="43.56252" lon="6.31559">
        <ele>389</ele>
        <time>2024-02-23T13:33:28Z</time>
      </trkpt>
      <trkpt lat="43.56269" lon="6.31587">
        <ele>390</ele>
        <time>2024-02-23T13:34:03Z</time>
      </trkpt>
      <trkpt lat="43.56271" lon="6.31593">
        <ele>390</ele>
        <time>2024-02-23T13:34:06Z</time>
      </trkpt>
      <trkpt lat="43.56282" lon="6.31616">
        <ele>391</ele>
        <time>2024-02-23T13:34:23Z</time>
      </trkpt>
      <trkpt lat="43.56283" lon="6.31621">
        <ele>391</ele>
        <time>2024-02-23T13:34:29Z</time>
      </trkpt>
      <trkpt lat="43.56287" lon="6.3162">
        <ele>392</ele>
        <time>2024-02-23T13:34:44Z</time>
      </trkpt>
      <trkpt lat="43.56287" lon="6.31625">
        <ele>392</ele>
        <time>2024-02-23T13:34:52Z</time>
      </trkpt>
      <trkpt lat="43.56292" lon="6.31627">
        <ele>393</ele>
        <time>2024-02-23T13:34:58Z</time>
      </trkpt>
      <trkpt lat="43.56297" lon="6.31653">
        <ele>394</ele>
        <time>2024-02-23T13:35:18Z</time>
      </trkpt>
      <trkpt lat="43.563" lon="6.31657">
        <ele>394</ele>
        <time>2024-02-23T13:35:24Z</time>
      </trkpt>
      <trkpt lat="43.56304" lon="6.31658">
        <ele>394</ele>
        <time>2024-02-23T13:35:31Z</time>
      </trkpt>
      <trkpt lat="43.56308" lon="6.31657">
        <ele>394</ele>
        <time>2024-02-23T13:35:39Z</time>
      </trkpt>
      <trkpt lat="43.56311" lon="6.31655">
        <ele>395</ele>
        <time>2024-02-23T13:35:45Z</time>
      </trkpt>
      <trkpt lat="43.56316" lon="6.31654">
        <ele>395</ele>
        <time>2024-02-23T13:35:51Z</time>
      </trkpt>
      <trkpt lat="43.56319" lon="6.3165">
        <ele>398</ele>
        <time>2024-02-23T13:36:01Z</time>
      </trkpt>
      <trkpt lat="43.56324" lon="6.31646">
        <ele>399</ele>
        <time>2024-02-23T13:36:16Z</time>
      </trkpt>
      <trkpt lat="43.56327" lon="6.31642">
        <ele>400</ele>
        <time>2024-02-23T13:36:23Z</time>
      </trkpt>
      <trkpt lat="43.5633" lon="6.31638">
        <ele>401</ele>
        <time>2024-02-23T13:36:33Z</time>
      </trkpt>
      <trkpt lat="43.56344" lon="6.31623">
        <ele>402</ele>
        <time>2024-02-23T13:37:04Z</time>
      </trkpt>
      <trkpt lat="43.56346" lon="6.31619">
        <ele>404</ele>
        <time>2024-02-23T13:37:11Z</time>
      </trkpt>
      <trkpt lat="43.56353" lon="6.31604">
        <ele>403</ele>
        <time>2024-02-23T13:37:30Z</time>
      </trkpt>
      <trkpt lat="43.56366" lon="6.31587">
        <ele>403</ele>
        <time>2024-02-23T13:37:53Z</time>
      </trkpt>
      <trkpt lat="43.56391" lon="6.31573">
        <ele>401</ele>
        <time>2024-02-23T13:38:20Z</time>
      </trkpt>
      <trkpt lat="43.56396" lon="6.31572">
        <ele>400</ele>
        <time>2024-02-23T13:38:25Z</time>
      </trkpt>
      <trkpt lat="43.56405" lon="6.31569">
        <ele>399</ele>
        <time>2024-02-23T13:38:35Z</time>
      </trkpt>
      <trkpt lat="43.56408" lon="6.31564">
        <ele>399</ele>
        <time>2024-02-23T13:38:40Z</time>
      </trkpt>
      <trkpt lat="43.56421" lon="6.31547">
        <ele>399</ele>
        <time>2024-02-23T13:38:56Z</time>
      </trkpt>
      <trkpt lat="43.56423" lon="6.31541">
        <ele>398</ele>
        <time>2024-02-23T13:39:02Z</time>
      </trkpt>
      <trkpt lat="43.56427" lon="6.31536">
        <ele>397</ele>
        <time>2024-02-23T13:39:07Z</time>
      </trkpt>
      <trkpt lat="43.5643" lon="6.31533">
        <ele>397</ele>
        <time>2024-02-23T13:39:11Z</time>
      </trkpt>
      <trkpt lat="43.5643" lon="6.31527">
        <ele>397</ele>
        <time>2024-02-23T13:39:17Z</time>
      </trkpt>
      <trkpt lat="43.56444" lon="6.31493">
        <ele>400</ele>
        <time>2024-02-23T13:39:48Z</time>
      </trkpt>
      <trkpt lat="43.56447" lon="6.31488">
        <ele>401</ele>
        <time>2024-02-23T13:39:54Z</time>
      </trkpt>
      <trkpt lat="43.56447" lon="6.31471">
        <ele>403</ele>
        <time>2024-02-23T13:40:12Z</time>
      </trkpt>
      <trkpt lat="43.56447" lon="6.31465">
        <ele>403</ele>
        <time>2024-02-23T13:40:19Z</time>
      </trkpt>
      <trkpt lat="43.56447" lon="6.3146">
        <ele>403</ele>
        <time>2024-02-23T13:40:24Z</time>
      </trkpt>
      <trkpt lat="43.56449" lon="6.31455">
        <ele>404</ele>
        <time>2024-02-23T13:40:29Z</time>
      </trkpt>
      <trkpt lat="43.56452" lon="6.31452">
        <ele>404</ele>
        <time>2024-02-23T13:40:34Z</time>
      </trkpt>
      <trkpt lat="43.56468" lon="6.31461">
        <ele>406</ele>
        <time>2024-02-23T13:40:52Z</time>
      </trkpt>
      <trkpt lat="43.56481" lon="6.31459">
        <ele>404</ele>
        <time>2024-02-23T13:41:08Z</time>
      </trkpt>
      <trkpt lat="43.56484" lon="6.31457">
        <ele>405</ele>
        <time>2024-02-23T13:41:13Z</time>
      </trkpt>
      <trkpt lat="43.56488" lon="6.31448">
        <ele>405</ele>
        <time>2024-02-23T13:41:22Z</time>
      </trkpt>
      <trkpt lat="43.56489" lon="6.31442">
        <ele>406</ele>
        <time>2024-02-23T13:41:28Z</time>
      </trkpt>
      <trkpt lat="43.5649" lon="6.31436">
        <ele>408</ele>
        <time>2024-02-23T13:41:35Z</time>
      </trkpt>
      <trkpt lat="43.56491" lon="6.31426">
        <ele>409</ele>
        <time>2024-02-23T13:41:45Z</time>
      </trkpt>
      <trkpt lat="43.56495" lon="6.31416">
        <ele>410</ele>
        <time>2024-02-23T13:41:54Z</time>
      </trkpt>
      <trkpt lat="43.56497" lon="6.3141">
        <ele>411</ele>
        <time>2024-02-23T13:41:59Z</time>
      </trkpt>
      <trkpt lat="43.56501" lon="6.31399">
        <ele>412</ele>
        <time>2024-02-23T13:42:10Z</time>
      </trkpt>
      <trkpt lat="43.56506" lon="6.31396">
        <ele>412</ele>
        <time>2024-02-23T13:42:16Z</time>
      </trkpt>
      <trkpt lat="43.56514" lon="6.31383">
        <ele>411</ele>
        <time>2024-02-23T13:42:30Z</time>
      </trkpt>
      <trkpt lat="43.56528" lon="6.31372">
        <ele>412</ele>
        <time>2024-02-23T13:42:47Z</time>
      </trkpt>
      <trkpt lat="43.56539" lon="6.31362">
        <ele>412</ele>
        <time>2024-02-23T13:43:01Z</time>
      </trkpt>
      <trkpt lat="43.56543" lon="6.31359">
        <ele>412</ele>
        <time>2024-02-23T13:43:05Z</time>
      </trkpt>
      <trkpt lat="43.56544" lon="6.31354">
        <ele>412</ele>
        <time>2024-02-23T13:43:10Z</time>
      </trkpt>
      <trkpt lat="43.56554" lon="6.31345">
        <ele>413</ele>
        <time>2024-02-23T13:43:24Z</time>
      </trkpt>
      <trkpt lat="43.56559" lon="6.31343">
        <ele>414</ele>
        <time>2024-02-23T13:43:31Z</time>
      </trkpt>
      <trkpt lat="43.56563" lon="6.31342">
        <ele>415</ele>
        <time>2024-02-23T13:43:36Z</time>
      </trkpt>
      <trkpt lat="43.56566" lon="6.31338">
        <ele>416</ele>
        <time>2024-02-23T13:43:42Z</time>
      </trkpt>
      <trkpt lat="43.56571" lon="6.31336">
        <ele>416</ele>
        <time>2024-02-23T13:43:47Z</time>
      </trkpt>
      <trkpt lat="43.56576" lon="6.31336">
        <ele>416</ele>
        <time>2024-02-23T13:43:53Z</time>
      </trkpt>
      <trkpt lat="43.56582" lon="6.31327">
        <ele>418</ele>
        <time>2024-02-23T13:44:05Z</time>
      </trkpt>
      <trkpt lat="43.56587" lon="6.31316">
        <ele>418</ele>
        <time>2024-02-23T13:44:17Z</time>
      </trkpt>
      <trkpt lat="43.56589" lon="6.31311">
        <ele>417</ele>
        <time>2024-02-23T13:44:22Z</time>
      </trkpt>
      <trkpt lat="43.56596" lon="6.31302">
        <ele>415</ele>
        <time>2024-02-23T13:44:31Z</time>
      </trkpt>
      <trkpt lat="43.56599" lon="6.31298">
        <ele>414</ele>
        <time>2024-02-23T13:44:36Z</time>
      </trkpt>
      <trkpt lat="43.56608" lon="6.31293">
        <ele>414</ele>
        <time>2024-02-23T13:44:45Z</time>
      </trkpt>
      <trkpt lat="43.56611" lon="6.3129">
        <ele>414</ele>
        <time>2024-02-23T13:44:50Z</time>
      </trkpt>
      <trkpt lat="43.56621" lon="6.31287">
        <ele>413</ele>
        <time>2024-02-23T13:44:58Z</time>
      </trkpt>
      <trkpt lat="43.56626" lon="6.31285">
        <ele>413</ele>
        <time>2024-02-23T13:45:02Z</time>
      </trkpt>
      <trkpt lat="43.56639" lon="6.31278">
        <ele>413</ele>
        <time>2024-02-23T13:45:16Z</time>
      </trkpt>
      <trkpt lat="43.56647" lon="6.31273">
        <ele>414</ele>
        <time>2024-02-23T13:45:25Z</time>
      </trkpt>
      <trkpt lat="43.56651" lon="6.31273">
        <ele>415</ele>
        <time>2024-02-23T13:45:30Z</time>
      </trkpt>
      <trkpt lat="43.56671" lon="6.31265">
        <ele>417</ele>
        <time>2024-02-23T13:45:53Z</time>
      </trkpt>
      <trkpt lat="43.56675" lon="6.31265">
        <ele>417</ele>
        <time>2024-02-23T13:45:58Z</time>
      </trkpt>
      <trkpt lat="43.5668" lon="6.31264">
        <ele>417</ele>
        <time>2024-02-23T13:46:03Z</time>
      </trkpt>
      <trkpt lat="43.56684" lon="6.31262">
        <ele>417</ele>
        <time>2024-02-23T13:46:09Z</time>
      </trkpt>
      <trkpt lat="43.56692" lon="6.3126">
        <ele>416</ele>
        <time>2024-02-23T13:46:18Z</time>
      </trkpt>
      <trkpt lat="43.56703" lon="6.31252">
        <ele>415</ele>
        <time>2024-02-23T13:46:31Z</time>
      </trkpt>
      <trkpt lat="43.56705" lon="6.31248">
        <ele>417</ele>
        <time>2024-02-23T13:46:36Z</time>
      </trkpt>
      <trkpt lat="43.56712" lon="6.31241">
        <ele>417</ele>
        <time>2024-02-23T13:46:46Z</time>
      </trkpt>
      <trkpt lat="43.56715" lon="6.31236">
        <ele>417</ele>
        <time>2024-02-23T13:46:50Z</time>
      </trkpt>
      <trkpt lat="43.5672" lon="6.31233">
        <ele>417</ele>
        <time>2024-02-23T13:46:55Z</time>
      </trkpt>
      <trkpt lat="43.56734" lon="6.31228">
        <ele>417</ele>
        <time>2024-02-23T13:47:08Z</time>
      </trkpt>
      <trkpt lat="43.56738" lon="6.31227">
        <ele>417</ele>
        <time>2024-02-23T13:47:13Z</time>
      </trkpt>
      <trkpt lat="43.56743" lon="6.31225">
        <ele>417</ele>
        <time>2024-02-23T13:47:18Z</time>
      </trkpt>
      <trkpt lat="43.56747" lon="6.31223">
        <ele>417</ele>
        <time>2024-02-23T13:47:22Z</time>
      </trkpt>
      <trkpt lat="43.56754" lon="6.31217">
        <ele>417</ele>
        <time>2024-02-23T13:47:32Z</time>
      </trkpt>
      <trkpt lat="43.56757" lon="6.31212">
        <ele>418</ele>
        <time>2024-02-23T13:47:37Z</time>
      </trkpt>
      <trkpt lat="43.56763" lon="6.31203">
        <ele>418</ele>
        <time>2024-02-23T13:47:47Z</time>
      </trkpt>
      <trkpt lat="43.56766" lon="6.3119">
        <ele>419</ele>
        <time>2024-02-23T13:47:58Z</time>
      </trkpt>
      <trkpt lat="43.56771" lon="6.31187">
        <ele>421</ele>
        <time>2024-02-23T13:48:32Z</time>
      </trkpt>
      <trkpt lat="43.56773" lon="6.31189">
        <ele>427</ele>
        <time>2024-02-23T13:50:04Z</time>
      </trkpt>
      <trkpt lat="43.56771" lon="6.31183">
        <ele>428</ele>
        <time>2024-02-23T13:50:21Z</time>
      </trkpt>
      <trkpt lat="43.56775" lon="6.31181">
        <ele>428</ele>
        <time>2024-02-23T13:50:28Z</time>
      </trkpt>
      <trkpt lat="43.56793" lon="6.31174">
        <ele>425</ele>
        <time>2024-02-23T13:50:52Z</time>
      </trkpt>
      <trkpt lat="43.56797" lon="6.31174">
        <ele>425</ele>
        <time>2024-02-23T13:50:56Z</time>
      </trkpt>
      <trkpt lat="43.56802" lon="6.31173">
        <ele>423</ele>
        <time>2024-02-23T13:51:04Z</time>
      </trkpt>
      <trkpt lat="43.56806" lon="6.31171">
        <ele>423</ele>
        <time>2024-02-23T13:51:09Z</time>
      </trkpt>
      <trkpt lat="43.56821" lon="6.31146">
        <ele>422</ele>
        <time>2024-02-23T13:51:34Z</time>
      </trkpt>
      <trkpt lat="43.56824" lon="6.31141">
        <ele>422</ele>
        <time>2024-02-23T13:51:38Z</time>
      </trkpt>
      <trkpt lat="43.56831" lon="6.31132">
        <ele>423</ele>
        <time>2024-02-23T13:51:49Z</time>
      </trkpt>
      <trkpt lat="43.5684" lon="6.31112">
        <ele>425</ele>
        <time>2024-02-23T13:52:10Z</time>
      </trkpt>
      <trkpt lat="43.56841" lon="6.31098">
        <ele>427</ele>
        <time>2024-02-23T13:52:19Z</time>
      </trkpt>
      <trkpt lat="43.56844" lon="6.31087">
        <ele>428</ele>
        <time>2024-02-23T13:52:28Z</time>
      </trkpt>
      <trkpt lat="43.56856" lon="6.31069">
        <ele>427</ele>
        <time>2024-02-23T13:52:52Z</time>
      </trkpt>
      <trkpt lat="43.5686" lon="6.31064">
        <ele>428</ele>
        <time>2024-02-23T13:52:57Z</time>
      </trkpt>
      <trkpt lat="43.56871" lon="6.31048">
        <ele>430</ele>
        <time>2024-02-23T13:53:16Z</time>
      </trkpt>
      <trkpt lat="43.56878" lon="6.3104">
        <ele>431</ele>
        <time>2024-02-23T13:53:32Z</time>
      </trkpt>
      <trkpt lat="43.56888" lon="6.31024">
        <ele>434</ele>
        <time>2024-02-23T13:53:51Z</time>
      </trkpt>
      <trkpt lat="43.56888" lon="6.31019">
        <ele>434</ele>
        <time>2024-02-23T13:53:56Z</time>
      </trkpt>
      <trkpt lat="43.56891" lon="6.31008">
        <ele>435</ele>
        <time>2024-02-23T13:54:07Z</time>
      </trkpt>
      <trkpt lat="43.56908" lon="6.30974">
        <ele>435</ele>
        <time>2024-02-23T13:54:41Z</time>
      </trkpt>
      <trkpt lat="43.5691" lon="6.30969">
        <ele>435</ele>
        <time>2024-02-23T13:54:45Z</time>
      </trkpt>
      <trkpt lat="43.56912" lon="6.30964">
        <ele>435</ele>
        <time>2024-02-23T13:54:50Z</time>
      </trkpt>
      <trkpt lat="43.56917" lon="6.30947">
        <ele>435</ele>
        <time>2024-02-23T13:55:05Z</time>
      </trkpt>
      <trkpt lat="43.56916" lon="6.30941">
        <ele>435</ele>
        <time>2024-02-23T13:55:12Z</time>
      </trkpt>
      <trkpt lat="43.56929" lon="6.30917">
        <ele>434</ele>
        <time>2024-02-23T13:55:36Z</time>
      </trkpt>
      <trkpt lat="43.56932" lon="6.30912">
        <ele>435</ele>
        <time>2024-02-23T13:55:41Z</time>
      </trkpt>
      <trkpt lat="43.56939" lon="6.30906">
        <ele>436</ele>
        <time>2024-02-23T13:55:49Z</time>
      </trkpt>
      <trkpt lat="43.56943" lon="6.30902">
        <ele>436</ele>
        <time>2024-02-23T13:55:53Z</time>
      </trkpt>
      <trkpt lat="43.56944" lon="6.30897">
        <ele>437</ele>
        <time>2024-02-23T13:55:57Z</time>
      </trkpt>
      <trkpt lat="43.56958" lon="6.30876">
        <ele>436</ele>
        <time>2024-02-23T13:56:17Z</time>
      </trkpt>
      <trkpt lat="43.56956" lon="6.30864">
        <ele>437</ele>
        <time>2024-02-23T13:56:31Z</time>
      </trkpt>
      <trkpt lat="43.56951" lon="6.30856">
        <ele>437</ele>
        <time>2024-02-23T13:56:42Z</time>
      </trkpt>
      <trkpt lat="43.56948" lon="6.30852">
        <ele>436</ele>
        <time>2024-02-23T13:56:46Z</time>
      </trkpt>
      <trkpt lat="43.56947" lon="6.30846">
        <ele>436</ele>
        <time>2024-02-23T13:56:50Z</time>
      </trkpt>
      <trkpt lat="43.56943" lon="6.30841">
        <ele>435</ele>
        <time>2024-02-23T13:56:56Z</time>
      </trkpt>
      <trkpt lat="43.56936" lon="6.30832">
        <ele>434</ele>
        <time>2024-02-23T13:57:04Z</time>
      </trkpt>
      <trkpt lat="43.56934" lon="6.30826">
        <ele>434</ele>
        <time>2024-02-23T13:57:10Z</time>
      </trkpt>
      <trkpt lat="43.56931" lon="6.30822">
        <ele>434</ele>
        <time>2024-02-23T13:57:16Z</time>
      </trkpt>
      <trkpt lat="43.56928" lon="6.3081">
        <ele>433</ele>
        <time>2024-02-23T13:57:27Z</time>
      </trkpt>
      <trkpt lat="43.56929" lon="6.30804">
        <ele>433</ele>
        <time>2024-02-23T13:57:31Z</time>
      </trkpt>
      <trkpt lat="43.56927" lon="6.30798">
        <ele>434</ele>
        <time>2024-02-23T13:57:36Z</time>
      </trkpt>
      <trkpt lat="43.56927" lon="6.30793">
        <ele>434</ele>
        <time>2024-02-23T13:57:40Z</time>
      </trkpt>
      <trkpt lat="43.56928" lon="6.30787">
        <ele>436</ele>
        <time>2024-02-23T13:57:47Z</time>
      </trkpt>
      <trkpt lat="43.56926" lon="6.30782">
        <ele>436</ele>
        <time>2024-02-23T13:57:56Z</time>
      </trkpt>
      <trkpt lat="43.56925" lon="6.30778">
        <ele>433</ele>
        <time>2024-02-23T13:58:07Z</time>
      </trkpt>
      <trkpt lat="43.56926" lon="6.30772">
        <ele>433</ele>
        <time>2024-02-23T13:58:20Z</time>
      </trkpt>
      <trkpt lat="43.56927" lon="6.30767">
        <ele>433</ele>
        <time>2024-02-23T13:58:25Z</time>
      </trkpt>
      <trkpt lat="43.5693" lon="6.30762">
        <ele>433</ele>
        <time>2024-02-23T13:58:31Z</time>
      </trkpt>
      <trkpt lat="43.56932" lon="6.30758">
        <ele>433</ele>
        <time>2024-02-23T13:58:36Z</time>
      </trkpt>
      <trkpt lat="43.56934" lon="6.30754">
        <ele>433</ele>
        <time>2024-02-23T13:58:40Z</time>
      </trkpt>
      <trkpt lat="43.5694" lon="6.30743">
        <ele>434</ele>
        <time>2024-02-23T13:58:49Z</time>
      </trkpt>
      <trkpt lat="43.56941" lon="6.30737">
        <ele>435</ele>
        <time>2024-02-23T13:58:55Z</time>
      </trkpt>
      <trkpt lat="43.56943" lon="6.30732">
        <ele>436</ele>
        <time>2024-02-23T13:59:01Z</time>
      </trkpt>
      <trkpt lat="43.56947" lon="6.30729">
        <ele>438</ele>
        <time>2024-02-23T13:59:09Z</time>
      </trkpt>
      <trkpt lat="43.5696" lon="6.30726">
        <ele>439</ele>
        <time>2024-02-23T13:59:25Z</time>
      </trkpt>
      <trkpt lat="43.56965" lon="6.30724">
        <ele>439</ele>
        <time>2024-02-23T13:59:31Z</time>
      </trkpt>
      <trkpt lat="43.56968" lon="6.30723">
        <ele>439</ele>
        <time>2024-02-23T13:59:36Z</time>
      </trkpt>
      <trkpt lat="43.56976" lon="6.30715">
        <ele>440</ele>
        <time>2024-02-23T13:59:48Z</time>
      </trkpt>
      <trkpt lat="43.5698" lon="6.30712">
        <ele>440</ele>
        <time>2024-02-23T13:59:54Z</time>
      </trkpt>
      <trkpt lat="43.56989" lon="6.30703">
        <ele>439</ele>
        <time>2024-02-23T14:00:04Z</time>
      </trkpt>
      <trkpt lat="43.56991" lon="6.30698">
        <ele>440</ele>
        <time>2024-02-23T14:00:08Z</time>
      </trkpt>
      <trkpt lat="43.56993" lon="6.30692">
        <ele>439</ele>
        <time>2024-02-23T14:00:12Z</time>
      </trkpt>
      <trkpt lat="43.56996" lon="6.30688">
        <ele>439</ele>
        <time>2024-02-23T14:00:16Z</time>
      </trkpt>
      <trkpt lat="43.56998" lon="6.30684">
        <ele>439</ele>
        <time>2024-02-23T14:00:20Z</time>
      </trkpt>
      <trkpt lat="43.57006" lon="6.30678">
        <ele>439</ele>
        <time>2024-02-23T14:00:29Z</time>
      </trkpt>
      <trkpt lat="43.57012" lon="6.30671">
        <ele>440</ele>
        <time>2024-02-23T14:00:37Z</time>
      </trkpt>
      <trkpt lat="43.57017" lon="6.30661">
        <ele>441</ele>
        <time>2024-02-23T14:00:45Z</time>
      </trkpt>
      <trkpt lat="43.5702" lon="6.30656">
        <ele>441</ele>
        <time>2024-02-23T14:00:48Z</time>
      </trkpt>
      <trkpt lat="43.57024" lon="6.30646">
        <ele>439</ele>
        <time>2024-02-23T14:00:56Z</time>
      </trkpt>
      <trkpt lat="43.57025" lon="6.30641">
        <ele>439</ele>
        <time>2024-02-23T14:01:00Z</time>
      </trkpt>
      <trkpt lat="43.57028" lon="6.30634">
        <ele>439</ele>
        <time>2024-02-23T14:01:05Z</time>
      </trkpt>
      <trkpt lat="43.5703" lon="6.30627">
        <ele>439</ele>
        <time>2024-02-23T14:01:10Z</time>
      </trkpt>
      <trkpt lat="43.57038" lon="6.30602">
        <ele>440</ele>
        <time>2024-02-23T14:01:33Z</time>
      </trkpt>
      <trkpt lat="43.57042" lon="6.30593">
        <ele>439</ele>
        <time>2024-02-23T14:01:40Z</time>
      </trkpt>
      <trkpt lat="43.57065" lon="6.3057">
        <ele>441</ele>
        <time>2024-02-23T14:02:10Z</time>
      </trkpt>
      <trkpt lat="43.57071" lon="6.30565">
        <ele>443</ele>
        <time>2024-02-23T14:02:21Z</time>
      </trkpt>
      <trkpt lat="43.57076" lon="6.30554">
        <ele>445</ele>
        <time>2024-02-23T14:02:35Z</time>
      </trkpt>
      <trkpt lat="43.57084" lon="6.30545">
        <ele>444</ele>
        <time>2024-02-23T14:02:45Z</time>
      </trkpt>
      <trkpt lat="43.57086" lon="6.30541">
        <ele>443</ele>
        <time>2024-02-23T14:02:49Z</time>
      </trkpt>
      <trkpt lat="43.57089" lon="6.30536">
        <ele>443</ele>
        <time>2024-02-23T14:02:54Z</time>
      </trkpt>
      <trkpt lat="43.57093" lon="6.30536">
        <ele>443</ele>
        <time>2024-02-23T14:03:01Z</time>
      </trkpt>
      <trkpt lat="43.57105" lon="6.30543">
        <ele>443</ele>
        <time>2024-02-23T14:03:17Z</time>
      </trkpt>
      <trkpt lat="43.57108" lon="6.30547">
        <ele>444</ele>
        <time>2024-02-23T14:03:23Z</time>
      </trkpt>
      <trkpt lat="43.57111" lon="6.3055">
        <ele>444</ele>
        <time>2024-02-23T14:03:29Z</time>
      </trkpt>
      <trkpt lat="43.57118" lon="6.30543">
        <ele>444</ele>
        <time>2024-02-23T14:03:52Z</time>
      </trkpt>
      <trkpt lat="43.57114" lon="6.30544">
        <ele>443</ele>
        <time>2024-02-23T14:04:31Z</time>
      </trkpt>
      <trkpt lat="43.57115" lon="6.30537">
        <ele>439</ele>
        <time>2024-02-23T14:06:36Z</time>
      </trkpt>
      <trkpt lat="43.57116" lon="6.30531">
        <ele>440</ele>
        <time>2024-02-23T14:06:45Z</time>
      </trkpt>
      <trkpt lat="43.57117" lon="6.30524">
        <ele>442</ele>
        <time>2024-02-23T14:06:51Z</time>
      </trkpt>
      <trkpt lat="43.57119" lon="6.30518">
        <ele>443</ele>
        <time>2024-02-23T14:06:57Z</time>
      </trkpt>
      <trkpt lat="43.5712" lon="6.30511">
        <ele>444</ele>
        <time>2024-02-23T14:07:03Z</time>
      </trkpt>
      <trkpt lat="43.57123" lon="6.30506">
        <ele>443</ele>
        <time>2024-02-23T14:07:07Z</time>
      </trkpt>
      <trkpt lat="43.57126" lon="6.30499">
        <ele>443</ele>
        <time>2024-02-23T14:07:13Z</time>
      </trkpt>
      <trkpt lat="43.57132" lon="6.30475">
        <ele>444</ele>
        <time>2024-02-23T14:07:36Z</time>
      </trkpt>
      <trkpt lat="43.57135" lon="6.30469">
        <ele>444</ele>
        <time>2024-02-23T14:07:41Z</time>
      </trkpt>
      <trkpt lat="43.57136" lon="6.30462">
        <ele>443</ele>
        <time>2024-02-23T14:07:48Z</time>
      </trkpt>
      <trkpt lat="43.57134" lon="6.30455">
        <ele>443</ele>
        <time>2024-02-23T14:07:55Z</time>
      </trkpt>
      <trkpt lat="43.57134" lon="6.30447">
        <ele>443</ele>
        <time>2024-02-23T14:08:02Z</time>
      </trkpt>
      <trkpt lat="43.57138" lon="6.30444">
        <ele>444</ele>
        <time>2024-02-23T14:08:09Z</time>
      </trkpt>
      <trkpt lat="43.57154" lon="6.30462">
        <ele>441</ele>
        <time>2024-02-23T14:08:36Z</time>
      </trkpt>
      <trkpt lat="43.57163" lon="6.30478">
        <ele>438</ele>
        <time>2024-02-23T14:08:54Z</time>
      </trkpt>
      <trkpt lat="43.57165" lon="6.30484">
        <ele>438</ele>
        <time>2024-02-23T14:09:02Z</time>
      </trkpt>
      <trkpt lat="43.57168" lon="6.30489">
        <ele>437</ele>
        <time>2024-02-23T14:09:07Z</time>
      </trkpt>
      <trkpt lat="43.5717" lon="6.30493">
        <ele>437</ele>
        <time>2024-02-23T14:09:12Z</time>
      </trkpt>
      <trkpt lat="43.57179" lon="6.305">
        <ele>437</ele>
        <time>2024-02-23T14:09:25Z</time>
      </trkpt>
      <trkpt lat="43.57181" lon="6.30507">
        <ele>438</ele>
        <time>2024-02-23T14:09:29Z</time>
      </trkpt>
      <trkpt lat="43.57184" lon="6.30512">
        <ele>438</ele>
        <time>2024-02-23T14:09:37Z</time>
      </trkpt>
      <trkpt lat="43.57199" lon="6.30526">
        <ele>437</ele>
        <time>2024-02-23T14:10:01Z</time>
      </trkpt>
      <trkpt lat="43.57214" lon="6.30547">
        <ele>437</ele>
        <time>2024-02-23T14:10:29Z</time>
      </trkpt>
      <trkpt lat="43.57222" lon="6.30554">
        <ele>436</ele>
        <time>2024-02-23T14:10:43Z</time>
      </trkpt>
      <trkpt lat="43.57232" lon="6.3056">
        <ele>434</ele>
        <time>2024-02-23T14:10:57Z</time>
      </trkpt>
      <trkpt lat="43.57237" lon="6.30565">
        <ele>431</ele>
        <time>2024-02-23T14:11:03Z</time>
      </trkpt>
      <trkpt lat="43.57242" lon="6.30568">
        <ele>431</ele>
        <time>2024-02-23T14:11:08Z</time>
      </trkpt>
      <trkpt lat="43.57253" lon="6.30572">
        <ele>430</ele>
        <time>2024-02-23T14:11:22Z</time>
      </trkpt>
      <trkpt lat="43.57259" lon="6.30576">
        <ele>429</ele>
        <time>2024-02-23T14:11:29Z</time>
      </trkpt>
      <trkpt lat="43.57264" lon="6.30577">
        <ele>427</ele>
        <time>2024-02-23T14:11:36Z</time>
      </trkpt>
      <trkpt lat="43.57269" lon="6.30576">
        <ele>428</ele>
        <time>2024-02-23T14:11:41Z</time>
      </trkpt>
      <trkpt lat="43.57273" lon="6.30573">
        <ele>427</ele>
        <time>2024-02-23T14:11:48Z</time>
      </trkpt>
      <trkpt lat="43.57278" lon="6.3057">
        <ele>427</ele>
        <time>2024-02-23T14:11:55Z</time>
      </trkpt>
      <trkpt lat="43.57282" lon="6.30565">
        <ele>426</ele>
        <time>2024-02-23T14:12:01Z</time>
      </trkpt>
      <trkpt lat="43.57286" lon="6.30562">
        <ele>425</ele>
        <time>2024-02-23T14:12:08Z</time>
      </trkpt>
      <trkpt lat="43.57285" lon="6.30555">
        <ele>424</ele>
        <time>2024-02-23T14:12:12Z</time>
      </trkpt>
      <trkpt lat="43.57289" lon="6.30552">
        <ele>424</ele>
        <time>2024-02-23T14:12:23Z</time>
      </trkpt>
      <trkpt lat="43.57293" lon="6.30548">
        <ele>423</ele>
        <time>2024-02-23T14:12:30Z</time>
      </trkpt>
      <trkpt lat="43.57298" lon="6.30545">
        <ele>422</ele>
        <time>2024-02-23T14:12:41Z</time>
      </trkpt>
      <trkpt lat="43.57315" lon="6.3054">
        <ele>423</ele>
        <time>2024-02-23T14:13:04Z</time>
      </trkpt>
      <trkpt lat="43.57327" lon="6.30539">
        <ele>423</ele>
        <time>2024-02-23T14:13:20Z</time>
      </trkpt>
      <trkpt lat="43.57332" lon="6.30535">
        <ele>423</ele>
        <time>2024-02-23T14:13:29Z</time>
      </trkpt>
      <trkpt lat="43.5735" lon="6.30543">
        <ele>424</ele>
        <time>2024-02-23T14:13:55Z</time>
      </trkpt>
      <trkpt lat="43.57355" lon="6.30548">
        <ele>423</ele>
        <time>2024-02-23T14:14:01Z</time>
      </trkpt>
      <trkpt lat="43.57359" lon="6.30549">
        <ele>422</ele>
        <time>2024-02-23T14:14:07Z</time>
      </trkpt>
      <trkpt lat="43.57365" lon="6.30549">
        <ele>421</ele>
        <time>2024-02-23T14:14:15Z</time>
      </trkpt>
      <trkpt lat="43.57369" lon="6.3055">
        <ele>422</ele>
        <time>2024-02-23T14:14:19Z</time>
      </trkpt>
      <trkpt lat="43.57381" lon="6.30557">
        <ele>424</ele>
        <time>2024-02-23T14:14:39Z</time>
      </trkpt>
      <trkpt lat="43.57384" lon="6.30559">
        <ele>424</ele>
        <time>2024-02-23T14:14:49Z</time>
      </trkpt>
      <trkpt lat="43.57388" lon="6.30559">
        <ele>424</ele>
        <time>2024-02-23T14:14:55Z</time>
      </trkpt>
      <trkpt lat="43.57393" lon="6.30563">
        <ele>426</ele>
        <time>2024-02-23T14:15:05Z</time>
      </trkpt>
      <trkpt lat="43.57402" lon="6.30569">
        <ele>425</ele>
        <time>2024-02-23T14:15:28Z</time>
      </trkpt>
      <trkpt lat="43.57406" lon="6.30565">
        <ele>427</ele>
        <time>2024-02-23T14:15:53Z</time>
      </trkpt>
      <trkpt lat="43.57407" lon="6.30558">
        <ele>428</ele>
        <time>2024-02-23T14:16:01Z</time>
      </trkpt>
      <trkpt lat="43.57406" lon="6.30551">
        <ele>428</ele>
        <time>2024-02-23T14:16:08Z</time>
      </trkpt>
      <trkpt lat="43.57408" lon="6.30546">
        <ele>429</ele>
        <time>2024-02-23T14:16:14Z</time>
      </trkpt>
      <trkpt lat="43.57406" lon="6.30541">
        <ele>430</ele>
        <time>2024-02-23T14:16:27Z</time>
      </trkpt>
      <trkpt lat="43.57406" lon="6.30535">
        <ele>430</ele>
        <time>2024-02-23T14:16:33Z</time>
      </trkpt>
      <trkpt lat="43.57403" lon="6.30529">
        <ele>431</ele>
        <time>2024-02-23T14:16:41Z</time>
      </trkpt>
      <trkpt lat="43.574" lon="6.30524">
        <ele>429</ele>
        <time>2024-02-23T14:16:47Z</time>
      </trkpt>
      <trkpt lat="43.57397" lon="6.3052">
        <ele>429</ele>
        <time>2024-02-23T14:16:52Z</time>
      </trkpt>
      <trkpt lat="43.57393" lon="6.30515">
        <ele>428</ele>
        <time>2024-02-23T14:17:00Z</time>
      </trkpt>
      <trkpt lat="43.57389" lon="6.30511">
        <ele>427</ele>
        <time>2024-02-23T14:17:09Z</time>
      </trkpt>
      <trkpt lat="43.57387" lon="6.30506">
        <ele>427</ele>
        <time>2024-02-23T14:17:15Z</time>
      </trkpt>
      <trkpt lat="43.57383" lon="6.30501">
        <ele>427</ele>
        <time>2024-02-23T14:17:22Z</time>
      </trkpt>
      <trkpt lat="43.57379" lon="6.30494">
        <ele>426</ele>
        <time>2024-02-23T14:17:31Z</time>
      </trkpt>
      <trkpt lat="43.57378" lon="6.30487">
        <ele>427</ele>
        <time>2024-02-23T14:17:41Z</time>
      </trkpt>
      <trkpt lat="43.57379" lon="6.30481">
        <ele>428</ele>
        <time>2024-02-23T14:17:49Z</time>
      </trkpt>
      <trkpt lat="43.57379" lon="6.30475">
        <ele>427</ele>
        <time>2024-02-23T14:18:42Z</time>
      </trkpt>
      <trkpt lat="43.57377" lon="6.30468">
        <ele>426</ele>
        <time>2024-02-23T14:18:57Z</time>
      </trkpt>
      <trkpt lat="43.57375" lon="6.30461">
        <ele>427</ele>
        <time>2024-02-23T14:19:05Z</time>
      </trkpt>
      <trkpt lat="43.57371" lon="6.30457">
        <ele>426</ele>
        <time>2024-02-23T14:19:09Z</time>
      </trkpt>
      <trkpt lat="43.57365" lon="6.30448">
        <ele>425</ele>
        <time>2024-02-23T14:19:21Z</time>
      </trkpt>
      <trkpt lat="43.57362" lon="6.30442">
        <ele>425</ele>
        <time>2024-02-23T14:19:28Z</time>
      </trkpt>
      <trkpt lat="43.57361" lon="6.30436">
        <ele>426</ele>
        <time>2024-02-23T14:19:45Z</time>
      </trkpt>
      <trkpt lat="43.57357" lon="6.30431">
        <ele>424</ele>
        <time>2024-02-23T14:20:17Z</time>
      </trkpt>
      <trkpt lat="43.57361" lon="6.30427">
        <ele>424</ele>
        <time>2024-02-23T14:21:09Z</time>
      </trkpt>
      <trkpt lat="43.57361" lon="6.30422">
        <ele>426</ele>
        <time>2024-02-23T14:21:31Z</time>
      </trkpt>
      <trkpt lat="43.57359" lon="6.30415">
        <ele>427</ele>
        <time>2024-02-23T14:22:48Z</time>
      </trkpt>
      <trkpt lat="43.57359" lon="6.3041">
        <ele>424</ele>
        <time>2024-02-23T14:23:28Z</time>
      </trkpt>
      <trkpt lat="43.57357" lon="6.30404">
        <ele>423</ele>
        <time>2024-02-23T14:24:03Z</time>
      </trkpt>
      <trkpt lat="43.57357" lon="6.30398">
        <ele>423</ele>
        <time>2024-02-23T14:24:39Z</time>
      </trkpt>
      <trkpt lat="43.57355" lon="6.30393">
        <ele>424</ele>
        <time>2024-02-23T14:25:11Z</time>
      </trkpt>
      <trkpt lat="43.57351" lon="6.30391">
        <ele>423</ele>
        <time>2024-02-23T14:26:00Z</time>
      </trkpt>
      <trkpt lat="43.57348" lon="6.30386">
        <ele>423</ele>
        <time>2024-02-23T14:26:33Z</time>
      </trkpt>
      <trkpt lat="43.57345" lon="6.30381">
        <ele>423</ele>
        <time>2024-02-23T14:26:52Z</time>
      </trkpt>
      <trkpt lat="43.57344" lon="6.30376">
        <ele>425</ele>
        <time>2024-02-23T14:27:34Z</time>
      </trkpt>
      <trkpt lat="43.57341" lon="6.30372">
        <ele>428</ele>
        <time>2024-02-23T14:28:19Z</time>
      </trkpt>
      <trkpt lat="43.57337" lon="6.30367">
        <ele>427</ele>
        <time>2024-02-23T14:28:54Z</time>
      </trkpt>
      <trkpt lat="43.57336" lon="6.30363">
        <ele>429</ele>
        <time>2024-02-23T14:30:53Z</time>
      </trkpt>
      <trkpt lat="43.57333" lon="6.30358">
        <ele>423</ele>
        <time>2024-02-23T14:31:47Z</time>
      </trkpt>
      <trkpt lat="43.57331" lon="6.30354">
        <ele>425</ele>
        <time>2024-02-23T14:33:01Z</time>
      </trkpt>
      <trkpt lat="43.57328" lon="6.3035">
        <ele>425</ele>
        <time>2024-02-23T14:33:34Z</time>
      </trkpt>
      <trkpt lat="43.57328" lon="6.30343">
        <ele>424</ele>
        <time>2024-02-23T14:34:05Z</time>
      </trkpt>
      <trkpt lat="43.57327" lon="6.30338">
        <ele>419</ele>
        <time>2024-02-23T14:34:51Z</time>
      </trkpt>
      <trkpt lat="43.57323" lon="6.30335">
        <ele>418</ele>
        <time>2024-02-23T14:35:13Z</time>
      </trkpt>
      <trkpt lat="43.57323" lon="6.3033">
        <ele>415</ele>
        <time>2024-02-23T14:35:46Z</time>
      </trkpt>
      <trkpt lat="43.57326" lon="6.30328">
        <ele>417</ele>
        <time>2024-02-23T14:36:36Z</time>
      </trkpt>
      <trkpt lat="43.57332" lon="6.30331">
        <ele>418</ele>
        <time>2024-02-23T14:36:58Z</time>
      </trkpt>
      <trkpt lat="43.57333" lon="6.30325">
        <ele>418</ele>
        <time>2024-02-23T14:37:28Z</time>
      </trkpt>
      <trkpt lat="43.57334" lon="6.3032">
        <ele>416</ele>
        <time>2024-02-23T14:37:39Z</time>
      </trkpt>
      <trkpt lat="43.57338" lon="6.30321">
        <ele>411</ele>
        <time>2024-02-23T14:37:49Z</time>
      </trkpt>
      <trkpt lat="43.57337" lon="6.30321">
        <ele>413</ele>
        <time>2024-02-23T14:38:54Z</time>
      </trkpt>
      <trkpt lat="43.57342" lon="6.30318">
        <ele>413</ele>
        <time>2024-02-23T14:39:11Z</time>
      </trkpt>
      <trkpt lat="43.57347" lon="6.30321">
        <ele>412</ele>
        <time>2024-02-23T14:39:20Z</time>
      </trkpt>
      <trkpt lat="43.5735" lon="6.30317">
        <ele>412</ele>
        <time>2024-02-23T14:39:35Z</time>
      </trkpt>
      <trkpt lat="43.57359" lon="6.30313">
        <ele>410</ele>
        <time>2024-02-23T14:39:57Z</time>
      </trkpt>
      <trkpt lat="43.5736" lon="6.30308">
        <ele>411</ele>
        <time>2024-02-23T14:40:14Z</time>
      </trkpt>
      <trkpt lat="43.57357" lon="6.30304">
        <ele>411</ele>
        <time>2024-02-23T14:40:27Z</time>
      </trkpt>
      <trkpt lat="43.57356" lon="6.303">
        <ele>408</ele>
        <time>2024-02-23T14:40:33Z</time>
      </trkpt>
      <trkpt lat="43.57353" lon="6.30298">
        <ele>408</ele>
        <time>2024-02-23T14:40:39Z</time>
      </trkpt>
      <trkpt lat="43.57349" lon="6.30297">
        <ele>405</ele>
        <time>2024-02-23T14:40:48Z</time>
      </trkpt>
      <trkpt lat="43.57349" lon="6.30289">
        <ele>403</ele>
        <time>2024-02-23T14:41:17Z</time>
      </trkpt>
      <trkpt lat="43.57347" lon="6.30284">
        <ele>400</ele>
        <time>2024-02-23T14:41:26Z</time>
      </trkpt>
      <trkpt lat="43.57345" lon="6.30281">
        <ele>398</ele>
        <time>2024-02-23T14:41:36Z</time>
      </trkpt>
      <trkpt lat="43.57342" lon="6.30276">
        <ele>397</ele>
        <time>2024-02-23T14:41:47Z</time>
      </trkpt>
      <trkpt lat="43.5734" lon="6.30272">
        <ele>397</ele>
        <time>2024-02-23T14:41:55Z</time>
      </trkpt>
      <trkpt lat="43.5733" lon="6.30274">
        <ele>397</ele>
        <time>2024-02-23T14:42:08Z</time>
      </trkpt>
      <trkpt lat="43.57325" lon="6.30274">
        <ele>397</ele>
        <time>2024-02-23T14:42:13Z</time>
      </trkpt>
      <trkpt lat="43.57321" lon="6.30271">
        <ele>394</ele>
        <time>2024-02-23T14:42:19Z</time>
      </trkpt>
      <trkpt lat="43.57319" lon="6.30267">
        <ele>393</ele>
        <time>2024-02-23T14:42:24Z</time>
      </trkpt>
      <trkpt lat="43.57315" lon="6.30262">
        <ele>393</ele>
        <time>2024-02-23T14:42:33Z</time>
      </trkpt>
      <trkpt lat="43.57311" lon="6.30259">
        <ele>392</ele>
        <time>2024-02-23T14:42:40Z</time>
      </trkpt>
      <trkpt lat="43.57309" lon="6.30254">
        <ele>391</ele>
        <time>2024-02-23T14:43:01Z</time>
      </trkpt>
      <trkpt lat="43.57307" lon="6.30247">
        <ele>392</ele>
        <time>2024-02-23T14:43:14Z</time>
      </trkpt>
      <trkpt lat="43.57299" lon="6.30239">
        <ele>391</ele>
        <time>2024-02-23T14:43:25Z</time>
      </trkpt>
      <trkpt lat="43.57295" lon="6.30237">
        <ele>388</ele>
        <time>2024-02-23T14:43:37Z</time>
      </trkpt>
      <trkpt lat="43.57286" lon="6.30231">
        <ele>386</ele>
        <time>2024-02-23T14:44:07Z</time>
      </trkpt>
      <trkpt lat="43.57276" lon="6.30227">
        <ele>384</ele>
        <time>2024-02-23T14:44:23Z</time>
      </trkpt>
      <trkpt lat="43.57274" lon="6.30221">
        <ele>383</ele>
        <time>2024-02-23T14:44:32Z</time>
      </trkpt>
      <trkpt lat="43.5727" lon="6.30219">
        <ele>381</ele>
        <time>2024-02-23T14:44:44Z</time>
      </trkpt>
      <trkpt lat="43.57265" lon="6.30218">
        <ele>380</ele>
        <time>2024-02-23T14:44:53Z</time>
      </trkpt>
      <trkpt lat="43.57261" lon="6.30214">
        <ele>380</ele>
        <time>2024-02-23T14:45:00Z</time>
      </trkpt>
      <trkpt lat="43.57256" lon="6.30213">
        <ele>381</ele>
        <time>2024-02-23T14:45:07Z</time>
      </trkpt>
      <trkpt lat="43.57253" lon="6.30209">
        <ele>381</ele>
        <time>2024-02-23T14:45:15Z</time>
      </trkpt>
      <trkpt lat="43.5725" lon="6.30203">
        <ele>381</ele>
        <time>2024-02-23T14:45:20Z</time>
      </trkpt>
      <trkpt lat="43.5725" lon="6.30197">
        <ele>382</ele>
        <time>2024-02-23T14:45:26Z</time>
      </trkpt>
      <trkpt lat="43.57248" lon="6.3019">
        <ele>382</ele>
        <time>2024-02-23T14:45:35Z</time>
      </trkpt>
      <trkpt lat="43.57244" lon="6.30186">
        <ele>384</ele>
        <time>2024-02-23T14:45:47Z</time>
      </trkpt>
      <trkpt lat="43.57249" lon="6.30182">
        <ele>385</ele>
        <time>2024-02-23T14:47:21Z</time>
      </trkpt>
      <trkpt lat="43.57253" lon="6.30179">
        <ele>385</ele>
        <time>2024-02-23T14:47:39Z</time>
      </trkpt>
      <trkpt lat="43.57256" lon="6.30173">
        <ele>380</ele>
        <time>2024-02-23T14:49:39Z</time>
      </trkpt>
      <trkpt lat="43.57254" lon="6.30169">
        <ele>379</ele>
        <time>2024-02-23T14:49:54Z</time>
      </trkpt>
      <trkpt lat="43.57251" lon="6.30169">
        <ele>381</ele>
        <time>2024-02-23T14:50:30Z</time>
      </trkpt>
      <trkpt lat="43.57253" lon="6.30163">
        <ele>382</ele>
        <time>2024-02-23T14:51:29Z</time>
      </trkpt>
      <trkpt lat="43.57256" lon="6.30156">
        <ele>383</ele>
        <time>2024-02-23T14:52:00Z</time>
      </trkpt>
      <trkpt lat="43.57256" lon="6.30151">
        <ele>384</ele>
        <time>2024-02-23T14:52:12Z</time>
      </trkpt>
      <trkpt lat="43.57254" lon="6.30144">
        <ele>384</ele>
        <time>2024-02-23T14:52:18Z</time>
      </trkpt>
      <trkpt lat="43.57253" lon="6.30139">
        <ele>384</ele>
        <time>2024-02-23T14:52:23Z</time>
      </trkpt>
      <trkpt lat="43.5725" lon="6.30135">
        <ele>384</ele>
        <time>2024-02-23T14:52:28Z</time>
      </trkpt>
      <trkpt lat="43.57247" lon="6.30131">
        <ele>383</ele>
        <time>2024-02-23T14:52:33Z</time>
      </trkpt>
      <trkpt lat="43.5724" lon="6.30119">
        <ele>382</ele>
        <time>2024-02-23T14:53:10Z</time>
      </trkpt>
      <trkpt lat="43.57237" lon="6.30115">
        <ele>380</ele>
        <time>2024-02-23T14:53:44Z</time>
      </trkpt>
      <trkpt lat="43.57236" lon="6.30111">
        <ele>376</ele>
        <time>2024-02-23T14:54:04Z</time>
      </trkpt>
      <trkpt lat="43.57234" lon="6.30107">
        <ele>376</ele>
        <time>2024-02-23T14:54:39Z</time>
      </trkpt>
      <trkpt lat="43.57232" lon="6.30103">
        <ele>377</ele>
        <time>2024-02-23T14:54:44Z</time>
      </trkpt>
      <trkpt lat="43.57232" lon="6.30098">
        <ele>377</ele>
        <time>2024-02-23T14:54:48Z</time>
      </trkpt>
      <trkpt lat="43.57232" lon="6.30091">
        <ele>378</ele>
        <time>2024-02-23T14:54:52Z</time>
      </trkpt>
      <trkpt lat="43.5723" lon="6.30086">
        <ele>378</ele>
        <time>2024-02-23T14:54:57Z</time>
      </trkpt>
      <trkpt lat="43.57229" lon="6.30082">
        <ele>376</ele>
        <time>2024-02-23T14:55:08Z</time>
      </trkpt>
      <trkpt lat="43.57225" lon="6.3007">
        <ele>373</ele>
        <time>2024-02-23T14:55:23Z</time>
      </trkpt>
      <trkpt lat="43.57223" lon="6.30066">
        <ele>373</ele>
        <time>2024-02-23T14:55:29Z</time>
      </trkpt>
      <trkpt lat="43.5722" lon="6.30061">
        <ele>372</ele>
        <time>2024-02-23T14:55:35Z</time>
      </trkpt>
      <trkpt lat="43.57218" lon="6.3005">
        <ele>371</ele>
        <time>2024-02-23T14:55:44Z</time>
      </trkpt>
      <trkpt lat="43.57218" lon="6.30045">
        <ele>370</ele>
        <time>2024-02-23T14:55:48Z</time>
      </trkpt>
      <trkpt lat="43.57219" lon="6.30033">
        <ele>370</ele>
        <time>2024-02-23T14:55:58Z</time>
      </trkpt>
      <trkpt lat="43.57222" lon="6.30021">
        <ele>369</ele>
        <time>2024-02-23T14:56:08Z</time>
      </trkpt>
      <trkpt lat="43.57232" lon="6.30002">
        <ele>368</ele>
        <time>2024-02-23T14:56:25Z</time>
      </trkpt>
      <trkpt lat="43.57234" lon="6.29997">
        <ele>367</ele>
        <time>2024-02-23T14:56:30Z</time>
      </trkpt>
      <trkpt lat="43.57236" lon="6.29993">
        <ele>367</ele>
        <time>2024-02-23T14:56:34Z</time>
      </trkpt>
      <trkpt lat="43.5724" lon="6.29989">
        <ele>365</ele>
        <time>2024-02-23T14:56:39Z</time>
      </trkpt>
      <trkpt lat="43.57245" lon="6.29974">
        <ele>364</ele>
        <time>2024-02-23T14:56:53Z</time>
      </trkpt>
      <trkpt lat="43.57252" lon="6.29962">
        <ele>362</ele>
        <time>2024-02-23T14:57:06Z</time>
      </trkpt>
      <trkpt lat="43.57257" lon="6.29943">
        <ele>360</ele>
        <time>2024-02-23T14:57:24Z</time>
      </trkpt>
      <trkpt lat="43.57256" lon="6.2993">
        <ele>360</ele>
        <time>2024-02-23T14:57:36Z</time>
      </trkpt>
      <trkpt lat="43.57258" lon="6.29916">
        <ele>360</ele>
        <time>2024-02-23T14:57:48Z</time>
      </trkpt>
      <trkpt lat="43.57257" lon="6.2991">
        <ele>359</ele>
        <time>2024-02-23T14:57:54Z</time>
      </trkpt>
      <trkpt lat="43.57261" lon="6.29898">
        <ele>357</ele>
        <time>2024-02-23T14:58:01Z</time>
      </trkpt>
      <trkpt lat="43.57262" lon="6.29892">
        <ele>356</ele>
        <time>2024-02-23T14:58:06Z</time>
      </trkpt>
      <trkpt lat="43.57259" lon="6.2988">
        <ele>357</ele>
        <time>2024-02-23T14:58:16Z</time>
      </trkpt>
      <trkpt lat="43.57259" lon="6.29872">
        <ele>358</ele>
        <time>2024-02-23T14:58:20Z</time>
      </trkpt>
      <trkpt lat="43.57257" lon="6.29866">
        <ele>358</ele>
        <time>2024-02-23T14:58:26Z</time>
      </trkpt>
      <trkpt lat="43.57258" lon="6.29858">
        <ele>359</ele>
        <time>2024-02-23T14:58:32Z</time>
      </trkpt>
      <trkpt lat="43.57252" lon="6.29838">
        <ele>360</ele>
        <time>2024-02-23T14:58:55Z</time>
      </trkpt>
      <trkpt lat="43.57248" lon="6.29798">
        <ele>361</ele>
        <time>2024-02-23T14:59:24Z</time>
      </trkpt>
      <trkpt lat="43.57246" lon="6.29792">
        <ele>361</ele>
        <time>2024-02-23T14:59:29Z</time>
      </trkpt>
      <trkpt lat="43.57247" lon="6.29784">
        <ele>362</ele>
        <time>2024-02-23T14:59:36Z</time>
      </trkpt>
      <trkpt lat="43.57245" lon="6.29778">
        <ele>361</ele>
        <time>2024-02-23T14:59:41Z</time>
      </trkpt>
      <trkpt lat="43.57242" lon="6.29765">
        <ele>361</ele>
        <time>2024-02-23T14:59:51Z</time>
      </trkpt>
      <trkpt lat="43.57242" lon="6.2975">
        <ele>361</ele>
        <time>2024-02-23T14:59:59Z</time>
      </trkpt>
      <trkpt lat="43.57241" lon="6.29753">
        <ele>362</ele>
        <time>2024-02-23T15:00:38Z</time>
      </trkpt>
      <trkpt lat="43.57239" lon="6.2976">
        <ele>362</ele>
        <time>2024-02-23T15:00:50Z</time>
      </trkpt>
      <trkpt lat="43.5724" lon="6.29767">
        <ele>361</ele>
        <time>2024-02-23T15:00:56Z</time>
      </trkpt>
      <trkpt lat="43.57235" lon="6.29768">
        <ele>360</ele>
        <time>2024-02-23T15:01:18Z</time>
      </trkpt>
      <trkpt lat="43.57235" lon="6.29773">
        <ele>358</ele>
        <time>2024-02-23T15:01:32Z</time>
      </trkpt>
      <trkpt lat="43.57239" lon="6.29784">
        <ele>354</ele>
        <time>2024-02-23T15:01:48Z</time>
      </trkpt>
      <trkpt lat="43.57243" lon="6.29788">
        <ele>353</ele>
        <time>2024-02-23T15:01:56Z</time>
      </trkpt>
      <trkpt lat="43.57245" lon="6.29795">
        <ele>355</ele>
        <time>2024-02-23T15:02:09Z</time>
      </trkpt>
      <trkpt lat="43.57242" lon="6.29798">
        <ele>356</ele>
        <time>2024-02-23T15:02:16Z</time>
      </trkpt>
      <trkpt lat="43.57238" lon="6.29801">
        <ele>356</ele>
        <time>2024-02-23T15:02:26Z</time>
      </trkpt>
      <trkpt lat="43.57232" lon="6.29804">
        <ele>357</ele>
        <time>2024-02-23T15:02:47Z</time>
      </trkpt>
      <trkpt lat="43.57227" lon="6.29805">
        <ele>356</ele>
        <time>2024-02-23T15:02:56Z</time>
      </trkpt>
      <trkpt lat="43.57223" lon="6.29808">
        <ele>356</ele>
        <time>2024-02-23T15:03:25Z</time>
      </trkpt>
      <trkpt lat="43.57221" lon="6.29803">
        <ele>357</ele>
        <time>2024-02-23T15:03:35Z</time>
      </trkpt>
      <trkpt lat="43.57219" lon="6.29798">
        <ele>354</ele>
        <time>2024-02-23T15:04:32Z</time>
      </trkpt>
      <trkpt lat="43.57216" lon="6.29793">
        <ele>351</ele>
        <time>2024-02-23T15:05:52Z</time>
      </trkpt>
      <trkpt lat="43.57212" lon="6.29781">
        <ele>352</ele>
        <time>2024-02-23T15:06:05Z</time>
      </trkpt>
      <trkpt lat="43.57211" lon="6.29774">
        <ele>353</ele>
        <time>2024-02-23T15:06:11Z</time>
      </trkpt>
      <trkpt lat="43.57211" lon="6.29769">
        <ele>354</ele>
        <time>2024-02-23T15:06:15Z</time>
      </trkpt>
      <trkpt lat="43.5721" lon="6.29763">
        <ele>355</ele>
        <time>2024-02-23T15:06:21Z</time>
      </trkpt>
      <trkpt lat="43.57209" lon="6.29758">
        <ele>355</ele>
        <time>2024-02-23T15:06:27Z</time>
      </trkpt>
      <trkpt lat="43.57202" lon="6.2974">
        <ele>356</ele>
        <time>2024-02-23T15:06:43Z</time>
      </trkpt>
      <trkpt lat="43.57199" lon="6.29734">
        <ele>355</ele>
        <time>2024-02-23T15:06:48Z</time>
      </trkpt>
      <trkpt lat="43.57199" lon="6.29714">
        <ele>357</ele>
        <time>2024-02-23T15:07:00Z</time>
      </trkpt>
      <trkpt lat="43.57194" lon="6.29696">
        <ele>356</ele>
        <time>2024-02-23T15:07:14Z</time>
      </trkpt>
      <trkpt lat="43.57192" lon="6.29692">
        <ele>356</ele>
        <time>2024-02-23T15:07:19Z</time>
      </trkpt>
      <trkpt lat="43.5719" lon="6.29686">
        <ele>356</ele>
        <time>2024-02-23T15:07:24Z</time>
      </trkpt>
      <trkpt lat="43.57188" lon="6.29681">
        <ele>357</ele>
        <time>2024-02-23T15:07:29Z</time>
      </trkpt>
      <trkpt lat="43.57187" lon="6.29674">
        <ele>357</ele>
        <time>2024-02-23T15:07:35Z</time>
      </trkpt>
      <trkpt lat="43.57179" lon="6.29659">
        <ele>354</ele>
        <time>2024-02-23T15:07:51Z</time>
      </trkpt>
      <trkpt lat="43.57176" lon="6.29655">
        <ele>354</ele>
        <time>2024-02-23T15:07:58Z</time>
      </trkpt>
      <trkpt lat="43.57174" lon="6.29649">
        <ele>354</ele>
        <time>2024-02-23T15:08:09Z</time>
      </trkpt>
      <trkpt lat="43.57173" lon="6.29645">
        <ele>353</ele>
        <time>2024-02-23T15:08:22Z</time>
      </trkpt>
      <trkpt lat="43.57178" lon="6.29643">
        <ele>352</ele>
        <time>2024-02-23T15:08:32Z</time>
      </trkpt>
      <trkpt lat="43.57181" lon="6.29642">
        <ele>350</ele>
        <time>2024-02-23T15:08:45Z</time>
      </trkpt>
      <trkpt lat="43.57186" lon="6.29643">
        <ele>349</ele>
        <time>2024-02-23T15:09:03Z</time>
      </trkpt>
      <trkpt lat="43.57191" lon="6.29645">
        <ele>350</ele>
        <time>2024-02-23T15:09:11Z</time>
      </trkpt>
      <trkpt lat="43.5719" lon="6.29642">
        <ele>350</ele>
        <time>2024-02-23T15:10:35Z</time>
      </trkpt>
      <trkpt lat="43.57191" lon="6.29632">
        <ele>349</ele>
        <time>2024-02-23T15:11:13Z</time>
      </trkpt>
      <trkpt lat="43.57189" lon="6.29629">
        <ele>349</ele>
        <time>2024-02-23T15:12:01Z</time>
      </trkpt>
      <trkpt lat="43.57187" lon="6.29628">
        <ele>353</ele>
        <time>2024-02-23T15:12:22Z</time>
      </trkpt>
      <trkpt lat="43.57186" lon="6.29635">
        <ele>353</ele>
        <time>2024-02-23T15:12:43Z</time>
      </trkpt>
      <trkpt lat="43.57183" lon="6.29636">
        <ele>354</ele>
        <time>2024-02-23T15:12:50Z</time>
      </trkpt>
      <trkpt lat="43.57181" lon="6.29639">
        <ele>354</ele>
        <time>2024-02-23T15:12:53Z</time>
      </trkpt>
      <trkpt lat="43.57177" lon="6.29643">
        <ele>353</ele>
        <time>2024-02-23T15:12:57Z</time>
      </trkpt>
      <trkpt lat="43.5716" lon="6.29634">
        <ele>352</ele>
        <time>2024-02-23T15:13:13Z</time>
      </trkpt>
      <trkpt lat="43.57153" lon="6.29625">
        <ele>353</ele>
        <time>2024-02-23T15:13:21Z</time>
      </trkpt>
      <trkpt lat="43.57151" lon="6.29622">
        <ele>353</ele>
        <time>2024-02-23T15:13:24Z</time>
      </trkpt>
      <trkpt lat="43.57144" lon="6.29613">
        <ele>352</ele>
        <time>2024-02-23T15:13:32Z</time>
      </trkpt>
      <trkpt lat="43.57137" lon="6.29606">
        <ele>353</ele>
        <time>2024-02-23T15:13:42Z</time>
      </trkpt>
      <trkpt lat="43.57134" lon="6.29602">
        <ele>353</ele>
        <time>2024-02-23T15:13:46Z</time>
      </trkpt>
      <trkpt lat="43.57132" lon="6.29597">
        <ele>353</ele>
        <time>2024-02-23T15:13:50Z</time>
      </trkpt>
      <trkpt lat="43.57129" lon="6.29592">
        <ele>353</ele>
        <time>2024-02-23T15:13:55Z</time>
      </trkpt>
      <trkpt lat="43.57124" lon="6.2959">
        <ele>352</ele>
        <time>2024-02-23T15:14:01Z</time>
      </trkpt>
      <trkpt lat="43.57121" lon="6.29589">
        <ele>352</ele>
        <time>2024-02-23T15:14:05Z</time>
      </trkpt>
      <trkpt lat="43.57118" lon="6.29586">
        <ele>352</ele>
        <time>2024-02-23T15:14:14Z</time>
      </trkpt>
      <trkpt lat="43.57108" lon="6.29586">
        <ele>353</ele>
        <time>2024-02-23T15:14:29Z</time>
      </trkpt>
      <trkpt lat="43.57105" lon="6.29585">
        <ele>353</ele>
        <time>2024-02-23T15:14:33Z</time>
      </trkpt>
      <trkpt lat="43.57101" lon="6.29582">
        <ele>354</ele>
        <time>2024-02-23T15:14:54Z</time>
      </trkpt>
      <trkpt lat="43.57093" lon="6.29592">
        <ele>355</ele>
        <time>2024-02-23T15:15:07Z</time>
      </trkpt>
      <trkpt lat="43.57089" lon="6.29601">
        <ele>356</ele>
        <time>2024-02-23T15:15:16Z</time>
      </trkpt>
      <trkpt lat="43.57086" lon="6.29605">
        <ele>356</ele>
        <time>2024-02-23T15:15:21Z</time>
      </trkpt>
      <trkpt lat="43.57081" lon="6.29614">
        <ele>356</ele>
        <time>2024-02-23T15:15:29Z</time>
      </trkpt>
      <trkpt lat="43.57073" lon="6.29621">
        <ele>355</ele>
        <time>2024-02-23T15:15:38Z</time>
      </trkpt>
      <trkpt lat="43.57069" lon="6.29631">
        <ele>355</ele>
        <time>2024-02-23T15:15:45Z</time>
      </trkpt>
      <trkpt lat="43.57066" lon="6.29641">
        <ele>355</ele>
        <time>2024-02-23T15:15:54Z</time>
      </trkpt>
      <trkpt lat="43.57065" lon="6.29645">
        <ele>355</ele>
        <time>2024-02-23T15:15:57Z</time>
      </trkpt>
      <trkpt lat="43.57062" lon="6.29649">
        <ele>355</ele>
        <time>2024-02-23T15:16:01Z</time>
      </trkpt>
      <trkpt lat="43.57058" lon="6.29653">
        <ele>355</ele>
        <time>2024-02-23T15:16:05Z</time>
      </trkpt>
      <trkpt lat="43.57055" lon="6.29655">
        <ele>355</ele>
        <time>2024-02-23T15:16:08Z</time>
      </trkpt>
      <trkpt lat="43.57047" lon="6.29654">
        <ele>354</ele>
        <time>2024-02-23T15:16:14Z</time>
      </trkpt>
      <trkpt lat="43.57043" lon="6.29653">
        <ele>354</ele>
        <time>2024-02-23T15:16:17Z</time>
      </trkpt>
      <trkpt lat="43.57036" lon="6.29644">
        <ele>355</ele>
        <time>2024-02-23T15:16:25Z</time>
      </trkpt>
      <trkpt lat="43.57034" lon="6.2964">
        <ele>354</ele>
        <time>2024-02-23T15:16:56Z</time>
      </trkpt>
      <trkpt lat="43.57028" lon="6.29635">
        <ele>354</ele>
        <time>2024-02-23T15:17:06Z</time>
      </trkpt>
      <trkpt lat="43.57024" lon="6.29634">
        <ele>355</ele>
        <time>2024-02-23T15:17:12Z</time>
      </trkpt>
      <trkpt lat="43.5702" lon="6.29635">
        <ele>355</ele>
        <time>2024-02-23T15:17:17Z</time>
      </trkpt>
      <trkpt lat="43.57017" lon="6.29632">
        <ele>356</ele>
        <time>2024-02-23T15:17:21Z</time>
      </trkpt>
      <trkpt lat="43.57005" lon="6.29625">
        <ele>359</ele>
        <time>2024-02-23T15:18:15Z</time>
      </trkpt>
      <trkpt lat="43.57002" lon="6.29623">
        <ele>361</ele>
        <time>2024-02-23T15:18:23Z</time>
      </trkpt>
      <trkpt lat="43.56993" lon="6.29621">
        <ele>362</ele>
        <time>2024-02-23T15:18:45Z</time>
      </trkpt>
      <trkpt lat="43.56989" lon="6.29622">
        <ele>360</ele>
        <time>2024-02-23T15:18:56Z</time>
      </trkpt>
      <trkpt lat="43.5698" lon="6.29627">
        <ele>359</ele>
        <time>2024-02-23T15:19:26Z</time>
      </trkpt>
      <trkpt lat="43.56978" lon="6.29629">
        <ele>358</ele>
        <time>2024-02-23T15:19:33Z</time>
      </trkpt>
      <trkpt lat="43.56974" lon="6.29632">
        <ele>358</ele>
        <time>2024-02-23T15:19:40Z</time>
      </trkpt>
      <trkpt lat="43.56971" lon="6.29631">
        <ele>357</ele>
        <time>2024-02-23T15:19:45Z</time>
      </trkpt>
      <trkpt lat="43.56968" lon="6.29627">
        <ele>356</ele>
        <time>2024-02-23T15:19:49Z</time>
      </trkpt>
      <trkpt lat="43.56965" lon="6.29626">
        <ele>356</ele>
        <time>2024-02-23T15:19:52Z</time>
      </trkpt>
      <trkpt lat="43.56961" lon="6.29626">
        <ele>355</ele>
        <time>2024-02-23T15:19:56Z</time>
      </trkpt>
      <trkpt lat="43.56957" lon="6.29626">
        <ele>354</ele>
        <time>2024-02-23T15:20:01Z</time>
      </trkpt>
      <trkpt lat="43.56955" lon="6.29622">
        <ele>354</ele>
        <time>2024-02-23T15:20:06Z</time>
      </trkpt>
      <trkpt lat="43.5695" lon="6.29607">
        <ele>352</ele>
        <time>2024-02-23T15:20:25Z</time>
      </trkpt>
      <trkpt lat="43.56946" lon="6.29586">
        <ele>352</ele>
        <time>2024-02-23T15:20:47Z</time>
      </trkpt>
      <trkpt lat="43.5694" lon="6.29564">
        <ele>353</ele>
        <time>2024-02-23T15:21:11Z</time>
      </trkpt>
      <trkpt lat="43.56937" lon="6.29562">
        <ele>353</ele>
        <time>2024-02-23T15:21:16Z</time>
      </trkpt>
      <trkpt lat="43.56933" lon="6.29552">
        <ele>353</ele>
        <time>2024-02-23T15:21:25Z</time>
      </trkpt>
      <trkpt lat="43.56932" lon="6.29542">
        <ele>353</ele>
        <time>2024-02-23T15:21:32Z</time>
      </trkpt>
      <trkpt lat="43.56929" lon="6.29532">
        <ele>352</ele>
        <time>2024-02-23T15:21:39Z</time>
      </trkpt>
      <trkpt lat="43.56926" lon="6.29523">
        <ele>352</ele>
        <time>2024-02-23T15:21:47Z</time>
      </trkpt>
      <trkpt lat="43.56924" lon="6.29514">
        <ele>354</ele>
        <time>2024-02-23T15:21:55Z</time>
      </trkpt>
      <trkpt lat="43.56921" lon="6.2951">
        <ele>354</ele>
        <time>2024-02-23T15:22:02Z</time>
      </trkpt>
      <trkpt lat="43.5692" lon="6.29507">
        <ele>355</ele>
        <time>2024-02-23T15:22:11Z</time>
      </trkpt>
      <trkpt lat="43.56916" lon="6.29507">
        <ele>355</ele>
        <time>2024-02-23T15:22:20Z</time>
      </trkpt>
      <trkpt lat="43.56914" lon="6.29504">
        <ele>356</ele>
        <time>2024-02-23T15:22:29Z</time>
      </trkpt>
      <trkpt lat="43.56915" lon="6.29497">
        <ele>358</ele>
        <time>2024-02-23T15:22:44Z</time>
      </trkpt>
      <trkpt lat="43.56917" lon="6.29495">
        <ele>358</ele>
        <time>2024-02-23T15:23:00Z</time>
      </trkpt>
      <trkpt lat="43.56919" lon="6.29488">
        <ele>360</ele>
        <time>2024-02-23T15:23:17Z</time>
      </trkpt>
      <trkpt lat="43.56919" lon="6.29484">
        <ele>360</ele>
        <time>2024-02-23T15:23:34Z</time>
      </trkpt>
      <trkpt lat="43.5692" lon="6.29486">
        <ele>362</ele>
        <time>2024-02-23T15:25:18Z</time>
      </trkpt>
      <trkpt lat="43.5692" lon="6.29491">
        <ele>362</ele>
        <time>2024-02-23T15:25:21Z</time>
      </trkpt>
      <trkpt lat="43.56917" lon="6.29494">
        <ele>360</ele>
        <time>2024-02-23T15:25:25Z</time>
      </trkpt>
      <trkpt lat="43.56914" lon="6.29494">
        <ele>359</ele>
        <time>2024-02-23T15:25:28Z</time>
      </trkpt>
      <trkpt lat="43.56911" lon="6.29493">
        <ele>359</ele>
        <time>2024-02-23T15:25:31Z</time>
      </trkpt>
      <trkpt lat="43.56906" lon="6.29487">
        <ele>359</ele>
        <time>2024-02-23T15:25:38Z</time>
      </trkpt>
      <trkpt lat="43.56902" lon="6.29485">
        <ele>358</ele>
        <time>2024-02-23T15:25:47Z</time>
      </trkpt>
      <trkpt lat="43.569" lon="6.29478">
        <ele>358</ele>
        <time>2024-02-23T15:26:04Z</time>
      </trkpt>
      <trkpt lat="43.56901" lon="6.29467">
        <ele>357</ele>
        <time>2024-02-23T15:26:52Z</time>
      </trkpt>
      <trkpt lat="43.569" lon="6.29464">
        <ele>358</ele>
        <time>2024-02-23T15:27:01Z</time>
      </trkpt>
      <trkpt lat="43.56901" lon="6.29461">
        <ele>359</ele>
        <time>2024-02-23T15:27:11Z</time>
      </trkpt>
      <trkpt lat="43.569" lon="6.29458">
        <ele>359</ele>
        <time>2024-02-23T15:27:20Z</time>
      </trkpt>
      <trkpt lat="43.56901" lon="6.29455">
        <ele>358</ele>
        <time>2024-02-23T15:27:23Z</time>
      </trkpt>
      <trkpt lat="43.56902" lon="6.29453">
        <ele>358</ele>
        <time>2024-02-23T15:27:26Z</time>
      </trkpt>
      <trkpt lat="43.56902" lon="6.2945">
        <ele>358</ele>
        <time>2024-02-23T15:27:34Z</time>
      </trkpt>
      <trkpt lat="43.56903" lon="6.29438">
        <ele>355</ele>
        <time>2024-02-23T15:27:48Z</time>
      </trkpt>
      <trkpt lat="43.56902" lon="6.29433">
        <ele>353</ele>
        <time>2024-02-23T15:27:56Z</time>
      </trkpt>
      <trkpt lat="43.56903" lon="6.29428">
        <ele>353</ele>
        <time>2024-02-23T15:28:02Z</time>
      </trkpt>
      <trkpt lat="43.56908" lon="6.29421">
        <ele>353</ele>
        <time>2024-02-23T15:28:12Z</time>
      </trkpt>
      <trkpt lat="43.56911" lon="6.29419">
        <ele>353</ele>
        <time>2024-02-23T15:28:17Z</time>
      </trkpt>
      <trkpt lat="43.56913" lon="6.29415">
        <ele>354</ele>
        <time>2024-02-23T15:28:23Z</time>
      </trkpt>
      <trkpt lat="43.56914" lon="6.29409">
        <ele>354</ele>
        <time>2024-02-23T15:28:28Z</time>
      </trkpt>
      <trkpt lat="43.56915" lon="6.29405">
        <ele>352</ele>
        <time>2024-02-23T15:28:34Z</time>
      </trkpt>
      <trkpt lat="43.56915" lon="6.294">
        <ele>352</ele>
        <time>2024-02-23T15:28:41Z</time>
      </trkpt>
      <trkpt lat="43.56914" lon="6.29395">
        <ele>351</ele>
        <time>2024-02-23T15:28:50Z</time>
      </trkpt>
      <trkpt lat="43.56911" lon="6.29392">
        <ele>350</ele>
        <time>2024-02-23T15:28:57Z</time>
      </trkpt>
      <trkpt lat="43.56913" lon="6.29387">
        <ele>350</ele>
        <time>2024-02-23T15:29:07Z</time>
      </trkpt>
      <trkpt lat="43.56915" lon="6.29383">
        <ele>349</ele>
        <time>2024-02-23T15:29:11Z</time>
      </trkpt>
      <trkpt lat="43.56918" lon="6.2938">
        <ele>349</ele>
        <time>2024-02-23T15:29:15Z</time>
      </trkpt>
      <trkpt lat="43.56925" lon="6.29376">
        <ele>349</ele>
        <time>2024-02-23T15:29:26Z</time>
      </trkpt>
      <trkpt lat="43.56929" lon="6.29376">
        <ele>348</ele>
        <time>2024-02-23T15:29:31Z</time>
      </trkpt>
      <trkpt lat="43.56928" lon="6.29371">
        <ele>347</ele>
        <time>2024-02-23T15:29:39Z</time>
      </trkpt>
      <trkpt lat="43.5693" lon="6.29367">
        <ele>346</ele>
        <time>2024-02-23T15:29:43Z</time>
      </trkpt>
      <trkpt lat="43.56933" lon="6.29364">
        <ele>345</ele>
        <time>2024-02-23T15:29:50Z</time>
      </trkpt>
      <trkpt lat="43.56939" lon="6.29356">
        <ele>343</ele>
        <time>2024-02-23T15:30:02Z</time>
      </trkpt>
      <trkpt lat="43.56941" lon="6.29346">
        <ele>343</ele>
        <time>2024-02-23T15:30:14Z</time>
      </trkpt>
      <trkpt lat="43.5694" lon="6.29342">
        <ele>343</ele>
        <time>2024-02-23T15:30:19Z</time>
      </trkpt>
      <trkpt lat="43.56942" lon="6.29329">
        <ele>339</ele>
        <time>2024-02-23T15:30:30Z</time>
      </trkpt>
      <trkpt lat="43.56943" lon="6.29325">
        <ele>339</ele>
        <time>2024-02-23T15:30:35Z</time>
      </trkpt>
      <trkpt lat="43.56943" lon="6.29318">
        <ele>338</ele>
        <time>2024-02-23T15:30:41Z</time>
      </trkpt>
      <trkpt lat="43.56949" lon="6.29305">
        <ele>335</ele>
        <time>2024-02-23T15:30:58Z</time>
      </trkpt>
      <trkpt lat="43.56953" lon="6.29304">
        <ele>335</ele>
        <time>2024-02-23T15:31:11Z</time>
      </trkpt>
      <trkpt lat="43.56956" lon="6.29298">
        <ele>334</ele>
        <time>2024-02-23T15:31:18Z</time>
      </trkpt>
      <trkpt lat="43.56957" lon="6.29294">
        <ele>333</ele>
        <time>2024-02-23T15:31:22Z</time>
      </trkpt>
      <trkpt lat="43.56958" lon="6.29289">
        <ele>332</ele>
        <time>2024-02-23T15:31:30Z</time>
      </trkpt>
      <trkpt lat="43.56958" lon="6.29285">
        <ele>332</ele>
        <time>2024-02-23T15:31:35Z</time>
      </trkpt>
      <trkpt lat="43.56958" lon="6.29276">
        <ele>330</ele>
        <time>2024-02-23T15:31:52Z</time>
      </trkpt>
      <trkpt lat="43.56956" lon="6.29272">
        <ele>328</ele>
        <time>2024-02-23T15:31:58Z</time>
      </trkpt>
      <trkpt lat="43.56953" lon="6.29271">
        <ele>326</ele>
        <time>2024-02-23T15:32:05Z</time>
      </trkpt>
      <trkpt lat="43.5695" lon="6.29272">
        <ele>324</ele>
        <time>2024-02-23T15:32:12Z</time>
      </trkpt>
      <trkpt lat="43.56947" lon="6.29273">
        <ele>324</ele>
        <time>2024-02-23T15:32:17Z</time>
      </trkpt>
      <trkpt lat="43.56943" lon="6.29272">
        <ele>324</ele>
        <time>2024-02-23T15:32:22Z</time>
      </trkpt>
      <trkpt lat="43.56936" lon="6.29273">
        <ele>325</ele>
        <time>2024-02-23T15:32:29Z</time>
      </trkpt>
      <trkpt lat="43.56933" lon="6.29274">
        <ele>325</ele>
        <time>2024-02-23T15:32:35Z</time>
      </trkpt>
      <trkpt lat="43.56931" lon="6.29273">
        <ele>325</ele>
        <time>2024-02-23T15:34:03Z</time>
      </trkpt>
      <trkpt lat="43.5693" lon="6.2927">
        <ele>327</ele>
        <time>2024-02-23T15:34:58Z</time>
      </trkpt>
      <trkpt lat="43.56928" lon="6.29265">
        <ele>327</ele>
        <time>2024-02-23T15:35:07Z</time>
      </trkpt>
      <trkpt lat="43.56927" lon="6.29261">
        <ele>328</ele>
        <time>2024-02-23T15:35:13Z</time>
      </trkpt>
      <trkpt lat="43.56926" lon="6.29256">
        <ele>327</ele>
        <time>2024-02-23T15:35:20Z</time>
      </trkpt>
      <trkpt lat="43.56927" lon="6.29251">
        <ele>327</ele>
        <time>2024-02-23T15:35:27Z</time>
      </trkpt>
      <trkpt lat="43.56928" lon="6.29242">
        <ele>326</ele>
        <time>2024-02-23T15:35:37Z</time>
      </trkpt>
      <trkpt lat="43.5693" lon="6.29238">
        <ele>326</ele>
        <time>2024-02-23T15:35:42Z</time>
      </trkpt>
      <trkpt lat="43.56931" lon="6.29233">
        <ele>326</ele>
        <time>2024-02-23T15:35:47Z</time>
      </trkpt>
      <trkpt lat="43.56934" lon="6.29228">
        <ele>324</ele>
        <time>2024-02-23T15:35:52Z</time>
      </trkpt>
      <trkpt lat="43.56935" lon="6.29224">
        <ele>324</ele>
        <time>2024-02-23T15:35:56Z</time>
      </trkpt>
      <trkpt lat="43.56936" lon="6.29219">
        <ele>323</ele>
        <time>2024-02-23T15:36:02Z</time>
      </trkpt>
      <trkpt lat="43.56937" lon="6.29213">
        <ele>323</ele>
        <time>2024-02-23T15:36:09Z</time>
      </trkpt>
      <trkpt lat="43.56939" lon="6.29202">
        <ele>321</ele>
        <time>2024-02-23T15:36:20Z</time>
      </trkpt>
      <trkpt lat="43.56939" lon="6.29196">
        <ele>320</ele>
        <time>2024-02-23T15:36:24Z</time>
      </trkpt>
      <trkpt lat="43.56939" lon="6.29191">
        <ele>320</ele>
        <time>2024-02-23T15:36:29Z</time>
      </trkpt>
      <trkpt lat="43.56939" lon="6.29186">
        <ele>321</ele>
        <time>2024-02-23T15:36:34Z</time>
      </trkpt>
      <trkpt lat="43.56936" lon="6.29181">
        <ele>321</ele>
        <time>2024-02-23T15:36:40Z</time>
      </trkpt>
      <trkpt lat="43.56933" lon="6.29177">
        <ele>319</ele>
        <time>2024-02-23T15:36:46Z</time>
      </trkpt>
      <trkpt lat="43.56928" lon="6.29169">
        <ele>318</ele>
        <time>2024-02-23T15:36:59Z</time>
      </trkpt>
      <trkpt lat="43.56924" lon="6.29165">
        <ele>318</ele>
        <time>2024-02-23T15:37:04Z</time>
      </trkpt>
      <trkpt lat="43.56921" lon="6.29159">
        <ele>317</ele>
        <time>2024-02-23T15:37:10Z</time>
      </trkpt>
      <trkpt lat="43.56914" lon="6.29153">
        <ele>316</ele>
        <time>2024-02-23T15:37:17Z</time>
      </trkpt>
      <trkpt lat="43.56911" lon="6.29152">
        <ele>317</ele>
        <time>2024-02-23T15:37:22Z</time>
      </trkpt>
      <trkpt lat="43.56907" lon="6.29152">
        <ele>318</ele>
        <time>2024-02-23T15:37:26Z</time>
      </trkpt>
      <trkpt lat="43.56904" lon="6.29154">
        <ele>318</ele>
        <time>2024-02-23T15:37:31Z</time>
      </trkpt>
      <trkpt lat="43.56886" lon="6.29176">
        <ele>324</ele>
        <time>2024-02-23T15:38:03Z</time>
      </trkpt>
      <trkpt lat="43.56877" lon="6.29186">
        <ele>326</ele>
        <time>2024-02-23T15:38:21Z</time>
      </trkpt>
      <trkpt lat="43.56875" lon="6.2919">
        <ele>327</ele>
        <time>2024-02-23T15:38:26Z</time>
      </trkpt>
      <trkpt lat="43.56873" lon="6.29194">
        <ele>328</ele>
        <time>2024-02-23T15:38:31Z</time>
      </trkpt>
      <trkpt lat="43.5687" lon="6.29197">
        <ele>328</ele>
        <time>2024-02-23T15:38:36Z</time>
      </trkpt>
      <trkpt lat="43.56864" lon="6.29205">
        <ele>329</ele>
        <time>2024-02-23T15:38:46Z</time>
      </trkpt>
      <trkpt lat="43.56847" lon="6.29238">
        <ele>332</ele>
        <time>2024-02-23T15:39:18Z</time>
      </trkpt>
      <trkpt lat="43.56832" lon="6.29266">
        <ele>333</ele>
        <time>2024-02-23T15:39:48Z</time>
      </trkpt>
      <trkpt lat="43.5683" lon="6.2927">
        <ele>334</ele>
        <time>2024-02-23T15:39:54Z</time>
      </trkpt>
      <trkpt lat="43.56823" lon="6.29276">
        <ele>332</ele>
        <time>2024-02-23T15:40:37Z</time>
      </trkpt>
      <trkpt lat="43.56814" lon="6.29283">
        <ele>332</ele>
        <time>2024-02-23T15:41:07Z</time>
      </trkpt>
      <trkpt lat="43.56811" lon="6.29287">
        <ele>330</ele>
        <time>2024-02-23T15:41:12Z</time>
      </trkpt>
      <trkpt lat="43.56807" lon="6.29296">
        <ele>329</ele>
        <time>2024-02-23T15:41:22Z</time>
      </trkpt>
      <trkpt lat="43.56795" lon="6.29314">
        <ele>328</ele>
        <time>2024-02-23T15:41:49Z</time>
      </trkpt>
      <trkpt lat="43.56794" lon="6.2932">
        <ele>328</ele>
        <time>2024-02-23T15:41:54Z</time>
      </trkpt>
      <trkpt lat="43.56784" lon="6.29338">
        <ele>330</ele>
        <time>2024-02-23T15:42:22Z</time>
      </trkpt>
      <trkpt lat="43.5678" lon="6.2934">
        <ele>330</ele>
        <time>2024-02-23T15:42:33Z</time>
      </trkpt>
      <trkpt lat="43.56776" lon="6.29343">
        <ele>329</ele>
        <time>2024-02-23T15:42:36Z</time>
      </trkpt>
      <trkpt lat="43.56773" lon="6.29347">
        <ele>330</ele>
        <time>2024-02-23T15:42:40Z</time>
      </trkpt>
      <trkpt lat="43.5677" lon="6.29353">
        <ele>330</ele>
        <time>2024-02-23T15:42:45Z</time>
      </trkpt>
      <trkpt lat="43.56764" lon="6.29361">
        <ele>329</ele>
        <time>2024-02-23T15:42:56Z</time>
      </trkpt>
      <trkpt lat="43.56761" lon="6.29362">
        <ele>328</ele>
        <time>2024-02-23T15:43:02Z</time>
      </trkpt>
      <trkpt lat="43.56756" lon="6.29361">
        <ele>327</ele>
        <time>2024-02-23T15:43:15Z</time>
      </trkpt>
      <trkpt lat="43.56752" lon="6.29355">
        <ele>327</ele>
        <time>2024-02-23T15:43:25Z</time>
      </trkpt>
      <trkpt lat="43.56749" lon="6.29353">
        <ele>327</ele>
        <time>2024-02-23T15:43:29Z</time>
      </trkpt>
      <trkpt lat="43.56746" lon="6.29353">
        <ele>327</ele>
        <time>2024-02-23T15:43:33Z</time>
      </trkpt>
      <trkpt lat="43.56742" lon="6.29355">
        <ele>326</ele>
        <time>2024-02-23T15:43:37Z</time>
      </trkpt>
      <trkpt lat="43.56736" lon="6.29355">
        <ele>325</ele>
        <time>2024-02-23T15:43:43Z</time>
      </trkpt>
      <trkpt lat="43.56732" lon="6.29357">
        <ele>325</ele>
        <time>2024-02-23T15:43:47Z</time>
      </trkpt>
      <trkpt lat="43.56729" lon="6.29359">
        <ele>324</ele>
        <time>2024-02-23T15:43:52Z</time>
      </trkpt>
      <trkpt lat="43.56725" lon="6.2936">
        <ele>325</ele>
        <time>2024-02-23T15:43:56Z</time>
      </trkpt>
      <trkpt lat="43.56719" lon="6.29367">
        <ele>326</ele>
        <time>2024-02-23T15:44:06Z</time>
      </trkpt>
      <trkpt lat="43.56715" lon="6.2937">
        <ele>326</ele>
        <time>2024-02-23T15:44:12Z</time>
      </trkpt>
      <trkpt lat="43.56702" lon="6.29383">
        <ele>326</ele>
        <time>2024-02-23T15:44:37Z</time>
      </trkpt>
      <trkpt lat="43.56699" lon="6.29384">
        <ele>326</ele>
        <time>2024-02-23T15:44:41Z</time>
      </trkpt>
      <trkpt lat="43.56695" lon="6.29388">
        <ele>327</ele>
        <time>2024-02-23T15:44:46Z</time>
      </trkpt>
      <trkpt lat="43.5669" lon="6.29389">
        <ele>327</ele>
        <time>2024-02-23T15:44:52Z</time>
      </trkpt>
      <trkpt lat="43.56674" lon="6.29388">
        <ele>325</ele>
        <time>2024-02-23T15:45:09Z</time>
      </trkpt>
      <trkpt lat="43.56671" lon="6.29389">
        <ele>324</ele>
        <time>2024-02-23T15:45:13Z</time>
      </trkpt>
      <trkpt lat="43.56664" lon="6.29392">
        <ele>323</ele>
        <time>2024-02-23T15:45:22Z</time>
      </trkpt>
      <trkpt lat="43.56649" lon="6.29389">
        <ele>320</ele>
        <time>2024-02-23T15:45:38Z</time>
      </trkpt>
      <trkpt lat="43.56645" lon="6.29391">
        <ele>320</ele>
        <time>2024-02-23T15:45:42Z</time>
      </trkpt>
      <trkpt lat="43.56642" lon="6.29391">
        <ele>319</ele>
        <time>2024-02-23T15:45:45Z</time>
      </trkpt>
      <trkpt lat="43.56639" lon="6.29389">
        <ele>318</ele>
        <time>2024-02-23T15:45:49Z</time>
      </trkpt>
      <trkpt lat="43.56636" lon="6.29388">
        <ele>318</ele>
        <time>2024-02-23T15:45:53Z</time>
      </trkpt>
      <trkpt lat="43.56622" lon="6.29374">
        <ele>315</ele>
        <time>2024-02-23T15:46:18Z</time>
      </trkpt>
      <trkpt lat="43.56618" lon="6.29368">
        <ele>315</ele>
        <time>2024-02-23T15:46:26Z</time>
      </trkpt>
      <trkpt lat="43.56618" lon="6.29362">
        <ele>315</ele>
        <time>2024-02-23T15:46:30Z</time>
      </trkpt>
      <trkpt lat="43.56619" lon="6.29357">
        <ele>316</ele>
        <time>2024-02-23T15:46:35Z</time>
      </trkpt>
      <trkpt lat="43.56628" lon="6.29342">
        <ele>315</ele>
        <time>2024-02-23T15:46:49Z</time>
      </trkpt>
      <trkpt lat="43.5663" lon="6.29337">
        <ele>315</ele>
        <time>2024-02-23T15:46:54Z</time>
      </trkpt>
      <trkpt lat="43.56633" lon="6.29334">
        <ele>315</ele>
        <time>2024-02-23T15:46:59Z</time>
      </trkpt>
      <trkpt lat="43.56636" lon="6.29329">
        <ele>315</ele>
        <time>2024-02-23T15:47:03Z</time>
      </trkpt>
      <trkpt lat="43.56641" lon="6.29321">
        <ele>314</ele>
        <time>2024-02-23T15:47:12Z</time>
      </trkpt>
      <trkpt lat="43.56646" lon="6.29305">
        <ele>314</ele>
        <time>2024-02-23T15:47:27Z</time>
      </trkpt>
      <trkpt lat="43.56646" lon="6.29299">
        <ele>314</ele>
        <time>2024-02-23T15:47:33Z</time>
      </trkpt>
      <trkpt lat="43.5665" lon="6.29293">
        <ele>313</ele>
        <time>2024-02-23T15:47:39Z</time>
      </trkpt>
      <trkpt lat="43.56653" lon="6.2929">
        <ele>313</ele>
        <time>2024-02-23T15:47:44Z</time>
      </trkpt>
      <trkpt lat="43.56656" lon="6.29285">
        <ele>312</ele>
        <time>2024-02-23T15:47:49Z</time>
      </trkpt>
      <trkpt lat="43.56659" lon="6.29282">
        <ele>312</ele>
        <time>2024-02-23T15:48:01Z</time>
      </trkpt>
      <trkpt lat="43.56661" lon="6.29279">
        <ele>313</ele>
        <time>2024-02-23T15:48:07Z</time>
      </trkpt>
      <trkpt lat="43.56664" lon="6.29281">
        <ele>315</ele>
        <time>2024-02-23T15:48:32Z</time>
      </trkpt>
      <trkpt lat="43.56663" lon="6.29286">
        <ele>315</ele>
        <time>2024-02-23T15:48:49Z</time>
      </trkpt>
      <trkpt lat="43.56663" lon="6.29283">
        <ele>315</ele>
        <time>2024-02-23T15:48:56Z</time>
      </trkpt>
      <trkpt lat="43.56665" lon="6.29281">
        <ele>315</ele>
        <time>2024-02-23T15:48:58Z</time>
      </trkpt>
      <trkpt lat="43.56665" lon="6.29275">
        <ele>316</ele>
        <time>2024-02-23T15:49:03Z</time>
      </trkpt>
      <trkpt lat="43.56664" lon="6.29273">
        <ele>316</ele>
        <time>2024-02-23T15:49:09Z</time>
      </trkpt>
      <trkpt lat="43.56663" lon="6.29276">
        <ele>315</ele>
        <time>2024-02-23T15:49:55Z</time>
      </trkpt>
      <trkpt lat="43.5666" lon="6.29278">
        <ele>315</ele>
        <time>2024-02-23T15:50:43Z</time>
      </trkpt>
      <trkpt lat="43.56658" lon="6.29282">
        <ele>311</ele>
        <time>2024-02-23T15:50:58Z</time>
      </trkpt>
      <trkpt lat="43.56657" lon="6.29288">
        <ele>311</ele>
        <time>2024-02-23T15:51:12Z</time>
      </trkpt>
      <trkpt lat="43.56655" lon="6.29293">
        <ele>311</ele>
        <time>2024-02-23T15:51:17Z</time>
      </trkpt>
      <trkpt lat="43.56652" lon="6.29297">
        <ele>310</ele>
        <time>2024-02-23T15:51:23Z</time>
      </trkpt>
      <trkpt lat="43.56649" lon="6.29301">
        <ele>309</ele>
        <time>2024-02-23T15:51:28Z</time>
      </trkpt>
      <trkpt lat="43.56647" lon="6.29306">
        <ele>309</ele>
        <time>2024-02-23T15:51:32Z</time>
      </trkpt>
      <trkpt lat="43.56645" lon="6.29312">
        <ele>308</ele>
        <time>2024-02-23T15:51:37Z</time>
      </trkpt>
      <trkpt lat="43.56645" lon="6.29317">
        <ele>308</ele>
        <time>2024-02-23T15:51:41Z</time>
      </trkpt>
      <trkpt lat="43.56642" lon="6.29327">
        <ele>309</ele>
        <time>2024-02-23T15:51:54Z</time>
      </trkpt>
      <trkpt lat="43.56638" lon="6.29331">
        <ele>309</ele>
        <time>2024-02-23T15:51:59Z</time>
      </trkpt>
      <trkpt lat="43.56635" lon="6.29334">
        <ele>309</ele>
        <time>2024-02-23T15:52:03Z</time>
      </trkpt>
      <trkpt lat="43.56633" lon="6.29337">
        <ele>308</ele>
        <time>2024-02-23T15:52:07Z</time>
      </trkpt>
      <trkpt lat="43.56621" lon="6.29354">
        <ele>308</ele>
        <time>2024-02-23T15:52:24Z</time>
      </trkpt>
      <trkpt lat="43.56618" lon="6.29356">
        <ele>309</ele>
        <time>2024-02-23T15:52:29Z</time>
      </trkpt>
      <trkpt lat="43.56614" lon="6.29357">
        <ele>310</ele>
        <time>2024-02-23T15:52:33Z</time>
      </trkpt>
      <trkpt lat="43.5661" lon="6.2936">
        <ele>309</ele>
        <time>2024-02-23T15:52:37Z</time>
      </trkpt>
      <trkpt lat="43.56577" lon="6.29344">
        <ele>310</ele>
        <time>2024-02-23T15:53:09Z</time>
      </trkpt>
      <trkpt lat="43.56574" lon="6.29342">
        <ele>310</ele>
        <time>2024-02-23T15:53:12Z</time>
      </trkpt>
      <trkpt lat="43.5657" lon="6.29341">
        <ele>309</ele>
        <time>2024-02-23T15:53:16Z</time>
      </trkpt>
      <trkpt lat="43.56567" lon="6.29344">
        <ele>309</ele>
        <time>2024-02-23T15:53:20Z</time>
      </trkpt>
      <trkpt lat="43.56561" lon="6.29352">
        <ele>309</ele>
        <time>2024-02-23T15:53:28Z</time>
      </trkpt>
      <trkpt lat="43.56559" lon="6.29361">
        <ele>308</ele>
        <time>2024-02-23T15:53:36Z</time>
      </trkpt>
      <trkpt lat="43.56559" lon="6.29366">
        <ele>310</ele>
        <time>2024-02-23T15:53:41Z</time>
      </trkpt>
      <trkpt lat="43.56556" lon="6.29363">
        <ele>310</ele>
        <time>2024-02-23T15:53:54Z</time>
      </trkpt>
      <trkpt lat="43.56553" lon="6.29363">
        <ele>310</ele>
        <time>2024-02-23T15:53:59Z</time>
      </trkpt>
    </trkseg>
  </trk>
</gpx>